Wetterdaten: Sonntag, 07.07.2019
Datum Zeit Temp. Aussen Temp. o. S. +5cm Feuchte Auss Luftdruck Regen Sonnenschein Regendauer Solar Windben Empfang
07.07.2019 00:00 15,8 C 13,9 C 13,9 C 93 % 1012,9 hPa 0,0 l/m 0 min 0 min 0 W/m 0,0 km/h (0 Bft) 95,74 %
07.07.2019 00:02 15,8 C 13,9 C 13,9 C 93 % 1012,9 hPa 0,0 l/m 0 min 0 min 0 W/m 0,0 km/h (0 Bft) 94,59 %
07.07.2019 00:04 15,7 C 13,9 C 13,9 C 93 % 1012,9 hPa 0,0 l/m 0 min 0 min 0 W/m 0,0 km/h (0 Bft) 95,65 %
07.07.2019 00:08 15,7 C 13,9 C 13,9 C 93 % 1012,9 hPa 0,0 l/m 0 min 0 min 0 W/m 3,2 km/h (1 Bft) 93,62 %
07.07.2019 00:10 15,7 C 13,9 C 13,9 C 93 % 1012,9 hPa 0,0 l/m 0 min 0 min 0 W/m 0,0 km/h (0 Bft) 95,74 %
07.07.2019 00:12 15,7 C 13,9 C 13,9 C 93 % 1012,9 hPa 0,0 l/m 0 min 0 min 0 W/m 3,2 km/h (1 Bft) 95,74 %
07.07.2019 00:14 15,7 C 14,4 C 14,4 C 93 % 1012,9 hPa 0,0 l/m 0 min 0 min 0 W/m 0,0 km/h (0 Bft) 95,74 %
07.07.2019 00:16 15,7 C 14,4 C 14,4 C 94 % 1012,9 hPa 0,0 l/m 0 min 0 min 0 W/m 3,2 km/h (1 Bft) 95,65 %
07.07.2019 00:18 15,7 C 14,4 C 14,4 C 94 % 1012,9 hPa 0,0 l/m 0 min 0 min 0 W/m 3,2 km/h (1 Bft) 93,62 %
07.07.2019 00:20 15,7 C 13,9 C 14,4 C 94 % 1012,9 hPa 0,0 l/m 0 min 0 min 0 W/m 6,4 km/h (2 Bft) 95,74 %
07.07.2019 00:22 15,7 C 13,9 C 14,4 C 94 % 1012,9 hPa 0,0 l/m 0 min 0 min 0 W/m 0,0 km/h (0 Bft) 93,62 %
07.07.2019 00:24 15,7 C 14,4 C 14,4 C 94 % 1012,9 hPa 0,0 l/m 0 min 0 min 0 W/m 0,0 km/h (0 Bft) 95,74 %
07.07.2019 00:26 15,7 C 14,4 C 14,4 C 94 % 1012,9 hPa 0,0 l/m 0 min 0 min 0 W/m 0,0 km/h (0 Bft) 95,74 %
07.07.2019 00:28 15,7 C 14,4 C 14,4 C 94 % 1012,9 hPa 0,0 l/m 0 min 0 min 0 W/m 0,0 km/h (0 Bft) 95,65 %
07.07.2019 00:30 15,7 C 14,4 C 14,4 C 94 % 1012,9 hPa 0,0 l/m 0 min 0 min 0 W/m 3,2 km/h (1 Bft) 100,00 %
07.07.2019 00:32 15,7 C 13,9 C 13,9 C 94 % 1012,8 hPa 0,0 l/m 0 min 0 min 0 W/m 3,2 km/h (1 Bft) 97,87 %
07.07.2019 00:34 15,6 C 14,4 C 13,9 C 94 % 1012,8 hPa 0,0 l/m 0 min 0 min 0 W/m 0,0 km/h (0 Bft) 100,00 %
07.07.2019 00:36 15,6 C 13,9 C 13,9 C 94 % 1012,8 hPa 0,0 l/m 0 min 0 min 0 W/m 3,2 km/h (1 Bft) 95,74 %
07.07.2019 00:38 15,6 C 13,9 C 13,9 C 94 % 1012,8 hPa 0,0 l/m 0 min 0 min 0 W/m 3,2 km/h (1 Bft) 100,00 %
07.07.2019 00:40 15,6 C 13,9 C 13,9 C 94 % 1012,8 hPa 0,0 l/m 0 min 0 min 0 W/m 0,0 km/h (0 Bft) 97,83 %
07.07.2019 00:42 15,6 C 13,9 C 13,9 C 94 % 1012,8 hPa 0,0 l/m 0 min 0 min 0 W/m 9,7 km/h (2 Bft) 100,00 %
07.07.2019 00:44 15,6 C 13,9 C 13,9 C 94 % 1012,9 hPa 0,0 l/m 0 min 0 min 0 W/m 3,2 km/h (1 Bft) 100,00 %
07.07.2019 00:46 15,6 C 13,9 C 13,9 C 94 % 1012,9 hPa 0,0 l/m 0 min 0 min 0 W/m 0,0 km/h (0 Bft) 100,00 %
07.07.2019 00:48 15,6 C 13,9 C 13,9 C 94 % 1012,9 hPa 0,0 l/m 0 min 0 min 0 W/m 3,2 km/h (1 Bft) 100,00 %
07.07.2019 00:50 15,6 C 13,9 C 13,9 C 94 % 1012,9 hPa 0,0 l/m 0 min 0 min 0 W/m 0,0 km/h (0 Bft) 100,00 %
07.07.2019 00:52 15,5 C 13,9 C 13,9 C 94 % 1013,0 hPa 0,0 l/m 0 min 0 min 0 W/m 0,0 km/h (0 Bft) 100,00 %
07.07.2019 00:54 15,5 C 13,9 C 13,9 C 94 % 1012,9 hPa 0,0 l/m 0 min 0 min 0 W/m 0,0 km/h (0 Bft) 100,00 %
07.07.2019 00:56 15,5 C 13,9 C 13,9 C 94 % 1013,0 hPa 0,0 l/m 0 min 0 min 0 W/m 0,0 km/h (0 Bft) 100,00 %
07.07.2019 00:58 15,5 C 13,9 C 13,9 C 94 % 1013,0 hPa 0,0 l/m 0 min 0 min 0 W/m 0,0 km/h (0 Bft) 100,00 %
07.07.2019 01:00 15,5 C 13,9 C 13,9 C 94 % 1013,0 hPa 0,0 l/m 0 min 0 min 0 W/m 0,0 km/h (0 Bft) 100,00 %
07.07.2019 01:02 15,4 C 13,9 C 13,9 C 94 % 1013,0 hPa 0,0 l/m 0 min 0 min 0 W/m 6,4 km/h (2 Bft) 97,83 %
07.07.2019 01:04 15,4 C 13,9 C 13,9 C 94 % 1013,0 hPa 0,0 l/m 0 min 0 min 0 W/m 0,0 km/h (0 Bft) 100,00 %
07.07.2019 01:06 15,4 C 13,9 C 13,9 C 94 % 1013,0 hPa 0,0 l/m 0 min 0 min 0 W/m 3,2 km/h (1 Bft) 97,87 %
07.07.2019 01:08 15,4 C 13,9 C 13,9 C 94 % 1013,0 hPa 0,0 l/m 0 min 0 min 0 W/m 6,4 km/h (2 Bft) 100,00 %
07.07.2019 01:10 15,4 C 13,9 C 13,9 C 94 % 1013,0 hPa 0,0 l/m 0 min 0 min 0 W/m 3,2 km/h (1 Bft) 100,00 %
07.07.2019 01:12 15,3 C 13,9 C 13,9 C 94 % 1013,0 hPa 0,0 l/m 0 min 0 min 0 W/m 3,2 km/h (1 Bft) 100,00 %
07.07.2019 01:14 15,3 C 13,9 C 13,9 C 94 % 1013,0 hPa 0,0 l/m 0 min 0 min 0 W/m 0,0 km/h (0 Bft) 100,00 %
07.07.2019 01:16 15,3 C 13,9 C 13,9 C 94 % 1012,9 hPa 0,0 l/m 0 min 0 min 0 W/m 3,2 km/h (1 Bft) 97,87 %
07.07.2019 01:18 15,3 C 13,9 C 13,9 C 94 % 1013,0 hPa 0,0 l/m 0 min 0 min 0 W/m 0,0 km/h (0 Bft) 97,87 %
07.07.2019 01:20 15,3 C 13,9 C 13,9 C 94 % 1013,0 hPa 0,0 l/m 0 min 0 min 0 W/m 0,0 km/h (0 Bft) 100,00 %
07.07.2019 01:22 15,3 C 13,9 C 13,9 C 94 % 1013,0 hPa 0,0 l/m 0 min 0 min 0 W/m 6,4 km/h (2 Bft) 100,00 %
07.07.2019 01:24 15,3 C 13,9 C 13,9 C 94 % 1013,0 hPa 0,0 l/m 0 min 0 min 0 W/m 3,2 km/h (1 Bft) 100,00 %
07.07.2019 01:26 15,3 C 13,9 C 13,9 C 94 % 1013,1 hPa 0,0 l/m 0 min 0 min 0 W/m 3,2 km/h (1 Bft) 100,00 %
07.07.2019 01:28 15,2 C 13,9 C 13,9 C 94 % 1013,1 hPa 0,0 l/m 0 min 0 min 0 W/m 0,0 km/h (0 Bft) 100,00 %
07.07.2019 01:30 15,2 C 13,9 C 13,9 C 94 % 1013,1 hPa 0,0 l/m 0 min 0 min 0 W/m 0,0 km/h (0 Bft) 100,00 %
07.07.2019 01:32 15,2 C 13,9 C 13,9 C 94 % 1013,1 hPa 0,0 l/m 0 min 0 min 0 W/m 0,0 km/h (0 Bft) 100,00 %
07.07.2019 01:34 15,2 C 13,9 C 13,9 C 94 % 1013,2 hPa 0,0 l/m 0 min 0 min 0 W/m 0,0 km/h (0 Bft) 100,00 %
07.07.2019 01:36 15,2 C 13,9 C 13,9 C 95 % 1013,1 hPa 0,0 l/m 0 min 0 min 0 W/m 0,0 km/h (0 Bft) 100,00 %
07.07.2019 01:38 15,2 C 13,9 C 13,9 C 95 % 1013,2 hPa 0,0 l/m 0 min 0 min 0 W/m 6,4 km/h (2 Bft) 95,65 %
07.07.2019 01:40 15,2 C 13,9 C 13,9 C 95 % 1013,2 hPa 0,0 l/m 0 min 0 min 0 W/m 6,4 km/h (2 Bft) 100,00 %
07.07.2019 01:42 15,2 C 13,9 C 13,9 C 95 % 1013,2 hPa 0,0 l/m 0 min 0 min 0 W/m 3,2 km/h (1 Bft) 100,00 %
07.07.2019 01:44 15,2 C 13,9 C 13,9 C 94 % 1013,2 hPa 0,0 l/m 0 min 0 min 0 W/m 9,7 km/h (2 Bft) 100,00 %
07.07.2019 01:46 15,1 C 13,9 C 13,9 C 94 % 1013,1 hPa 0,0 l/m 0 min 0 min 0 W/m 6,4 km/h (2 Bft) 100,00 %
07.07.2019 01:48 15,1 C 13,9 C 13,9 C 94 % 1013,1 hPa 0,0 l/m 0 min 0 min 0 W/m 3,2 km/h (1 Bft) 97,87 %
07.07.2019 01:50 15,1 C 13,9 C 13,9 C 94 % 1013,2 hPa 0,0 l/m 0 min 0 min 0 W/m 0,0 km/h (0 Bft) 100,00 %
07.07.2019 01:52 15,1 C 13,9 C 13,9 C 94 % 1013,1 hPa 0,0 l/m 0 min 0 min 0 W/m 0,0 km/h (0 Bft) 95,74 %
07.07.2019 01:54 15,1 C 13,9 C 13,9 C 94 % 1013,1 hPa 0,0 l/m 0 min 0 min 0 W/m 6,4 km/h (2 Bft) 100,00 %
07.07.2019 01:56 15,1 C 13,9 C 13,9 C 94 % 1013,1 hPa 0,0 l/m 0 min 0 min 0 W/m 6,4 km/h (2 Bft) 100,00 %
07.07.2019 01:58 15,1 C 13,9 C 13,9 C 94 % 1013,0 hPa 0,0 l/m 0 min 0 min 0 W/m 3,2 km/h (1 Bft) 100,00 %
07.07.2019 02:00 15,0 C 13,9 C 13,9 C 94 % 1013,1 hPa 0,0 l/m 0 min 0 min 0 W/m 3,2 km/h (1 Bft) 97,87 %
07.07.2019 02:02 15,0 C 13,9 C 13,9 C 94 % 1013,0 hPa 0,0 l/m 0 min 0 min 0 W/m 3,2 km/h (1 Bft) 100,00 %
07.07.2019 02:04 15,0 C 13,9 C 13,9 C 94 % 1013,0 hPa 0,0 l/m 0 min 0 min 0 W/m 3,2 km/h (1 Bft) 100,00 %
07.07.2019 02:06 15,0 C 13,9 C 13,9 C 94 % 1013,0 hPa 0,0 l/m 0 min 0 min 0 W/m 0,0 km/h (0 Bft) 97,87 %
07.07.2019 02:08 14,9 C 13,9 C 13,9 C 94 % 1013,0 hPa 0,0 l/m 0 min 0 min 0 W/m 9,7 km/h (2 Bft) 97,87 %
07.07.2019 02:10 14,9 C 13,9 C 13,3 C 94 % 1013,0 hPa 0,0 l/m 0 min 0 min 0 W/m 0,0 km/h (0 Bft) 100,00 %
07.07.2019 02:12 14,9 C 13,9 C 13,3 C 95 % 1013,0 hPa 0,0 l/m 0 min 0 min 0 W/m 0,0 km/h (0 Bft) 97,87 %
07.07.2019 02:14 14,9 C 13,3 C 13,3 C 95 % 1013,0 hPa 0,0 l/m 0 min 0 min 0 W/m 6,4 km/h (2 Bft) 95,65 %
07.07.2019 02:16 14,9 C 13,3 C 13,3 C 95 % 1013,0 hPa 0,0 l/m 0 min 0 min 0 W/m 6,4 km/h (2 Bft) 93,62 %
07.07.2019 02:18 14,9 C 13,3 C 13,3 C 95 % 1013,1 hPa 0,0 l/m 0 min 0 min 0 W/m 6,4 km/h (2 Bft) 100,00 %
07.07.2019 02:20 14,9 C 13,3 C 13,3 C 95 % 1013,0 hPa 0,0 l/m 0 min 0 min 0 W/m 3,2 km/h (1 Bft) 100,00 %
07.07.2019 02:22 14,9 C 13,3 C 13,3 C 95 % 1013,0 hPa 0,0 l/m 0 min 0 min 0 W/m 3,2 km/h (1 Bft) 97,87 %
07.07.2019 02:24 14,8 C 13,3 C 13,3 C 95 % 1013,0 hPa 0,0 l/m 0 min 0 min 0 W/m 3,2 km/h (1 Bft) 95,65 %
07.07.2019 02:26 14,8 C 13,3 C 13,3 C 94 % 1013,1 hPa 0,0 l/m 0 min 0 min 0 W/m 12,9 km/h (3 Bft) 97,87 %
07.07.2019 02:28 14,8 C 13,3 C 13,3 C 94 % 1013,0 hPa 0,0 l/m 0 min 0 min 0 W/m 3,2 km/h (1 Bft) 95,74 %
07.07.2019 02:30 14,8 C 13,3 C 13,3 C 95 % 1013,0 hPa 0,0 l/m 0 min 0 min 0 W/m 3,2 km/h (1 Bft) 93,62 %
07.07.2019 02:32 14,8 C 13,3 C 13,3 C 95 % 1013,0 hPa 0,0 l/m 0 min 0 min 0 W/m 3,2 km/h (1 Bft) 91,49 %
07.07.2019 02:34 14,8 C 13,3 C 13,3 C 95 % 1013,0 hPa 0,0 l/m 0 min 0 min 0 W/m 0,0 km/h (0 Bft) 93,62 %
07.07.2019 02:36 14,8 C 13,3 C 13,3 C 95 % 1013,0 hPa 0,0 l/m 0 min 0 min 0 W/m 9,7 km/h (2 Bft) 93,48 %
07.07.2019 02:38 14,8 C 13,3 C 13,3 C 95 % 1013,0 hPa 0,0 l/m 0 min 2 min 0 W/m 3,2 km/h (1 Bft) 93,62 %
07.07.2019 02:40 14,8 C 13,3 C 13,3 C 95 % 1013,0 hPa 0,0 l/m 0 min 0 min 0 W/m 6,4 km/h (2 Bft) 91,49 %
07.07.2019 02:42 14,8 C 13,3 C 13,3 C 95 % 1013,0 hPa 0,0 l/m 0 min 0 min 0 W/m 3,2 km/h (1 Bft) 91,49 %
07.07.2019 02:44 14,7 C 13,3 C 13,3 C 94 % 1013,0 hPa 0,0 l/m 0 min 0 min 0 W/m 3,2 km/h (1 Bft) 93,62 %
07.07.2019 02:46 14,7 C 13,3 C 13,3 C 94 % 1013,1 hPa 0,0 l/m 0 min 0 min 0 W/m 3,2 km/h (1 Bft) 93,48 %
07.07.2019 02:48 14,7 C 13,3 C 13,3 C 94 % 1013,0 hPa 0,0 l/m 0 min 0 min 0 W/m 3,2 km/h (1 Bft) 93,62 %
07.07.2019 02:50 14,7 C 13,3 C 13,3 C 94 % 1013,0 hPa 0,0 l/m 0 min 0 min 0 W/m 3,2 km/h (1 Bft) 93,62 %
07.07.2019 02:52 14,7 C 13,3 C 13,3 C 94 % 1013,0 hPa 0,0 l/m 0 min 0 min 0 W/m 9,7 km/h (2 Bft) 91,49 %
07.07.2019 02:54 14,7 C 13,3 C 13,3 C 94 % 1013,0 hPa 0,0 l/m 0 min 0 min 0 W/m 6,4 km/h (2 Bft) 93,62 %
07.07.2019 02:56 14,7 C 13,3 C 13,3 C 94 % 1013,0 hPa 0,0 l/m 0 min 0 min 0 W/m 0,0 km/h (0 Bft) 93,62 %
07.07.2019 02:58 14,7 C 13,3 C 13,3 C 94 % 1013,1 hPa 0,0 l/m 0 min 0 min 0 W/m 3,2 km/h (1 Bft) 91,30 %
07.07.2019 03:00 14,6 C 13,3 C 13,3 C 94 % 1013,0 hPa 0,0 l/m 0 min 0 min 0 W/m 3,2 km/h (1 Bft) 91,49 %
07.07.2019 03:02 14,6 C 12,8 C 12,8 C 94 % 1013,0 hPa 0,0 l/m 0 min 0 min 0 W/m 0,0 km/h (0 Bft) 93,62 %
07.07.2019 03:04 14,6 C 12,8 C 12,8 C 94 % 1013,0 hPa 0,0 l/m 0 min 0 min 0 W/m 6,4 km/h (2 Bft) 93,62 %
07.07.2019 03:06 14,5 C 12,8 C 12,8 C 94 % 1013,0 hPa 0,0 l/m 0 min 0 min 0 W/m 0,0 km/h (0 Bft) 91,49 %
07.07.2019 03:08 14,5 C 13,3 C 12,8 C 94 % 1013,1 hPa 0,0 l/m 0 min 0 min 0 W/m 3,2 km/h (1 Bft) 91,49 %
07.07.2019 03:10 14,5 C 12,8 C 12,8 C 94 % 1013,0 hPa 0,0 l/m 0 min 0 min 0 W/m 6,4 km/h (2 Bft) 89,36 %
07.07.2019 03:12 14,4 C 12,8 C 12,8 C 94 % 1013,0 hPa 0,0 l/m 0 min 0 min 0 W/m 6,4 km/h (2 Bft) 93,48 %
07.07.2019 03:14 14,4 C 12,8 C 12,8 C 94 % 1013,0 hPa 0,0 l/m 0 min 0 min 0 W/m 0,0 km/h (0 Bft) 95,74 %
07.07.2019 03:16 14,4 C 12,8 C 12,8 C 94 % 1013,0 hPa 0,0 l/m 0 min 0 min 0 W/m 3,2 km/h (1 Bft) 89,36 %
07.07.2019 03:18 14,4 C 12,8 C 12,8 C 94 % 1013,0 hPa 0,0 l/m 0 min 0 min 0 W/m 0,0 km/h (0 Bft) 97,87 %
07.07.2019 03:20 14,4 C 12,8 C 12,8 C 94 % 1013,0 hPa 0,0 l/m 0 min 0 min 0 W/m 3,2 km/h (1 Bft) 97,87 %
07.07.2019 03:22 14,4 C 12,8 C 12,8 C 94 % 1013,0 hPa 0,0 l/m 0 min 0 min 0 W/m 3,2 km/h (1 Bft) 97,83 %
07.07.2019 03:24 14,3 C 12,8 C 12,8 C 94 % 1013,0 hPa 0,0 l/m 0 min 0 min 0 W/m 0,0 km/h (0 Bft) 97,87 %
07.07.2019 03:26 14,3 C 12,8 C 12,8 C 94 % 1013,0 hPa 0,0 l/m 0 min 0 min 0 W/m 0,0 km/h (0 Bft) 97,87 %
07.07.2019 03:28 14,3 C 12,8 C 12,8 C 94 % 1012,9 hPa 0,0 l/m 0 min 0 min 0 W/m 3,2 km/h (1 Bft) 97,87 %
07.07.2019 03:30 14,3 C 12,8 C 12,8 C 94 % 1013,0 hPa 0,0 l/m 0 min 0 min 0 W/m 0,0 km/h (0 Bft) 97,87 %
07.07.2019 03:32 14,3 C 12,8 C 12,8 C 94 % 1013,0 hPa 0,0 l/m 0 min 0 min 0 W/m 3,2 km/h (1 Bft) 95,74 %
07.07.2019 03:34 14,3 C 12,8 C 12,8 C 94 % 1013,0 hPa 0,0 l/m 0 min 0 min 0 W/m 6,4 km/h (2 Bft) 95,65 %
07.07.2019 03:36 14,2 C 12,8 C 12,8 C 94 % 1013,0 hPa 0,0 l/m 0 min 0 min 0 W/m 3,2 km/h (1 Bft) 97,87 %
07.07.2019 03:38 14,2 C 12,8 C 12,8 C 94 % 1013,0 hPa 0,0 l/m 0 min 0 min 0 W/m 9,7 km/h (2 Bft) 100,00 %
07.07.2019 03:40 14,2 C 12,8 C 12,8 C 94 % 1013,0 hPa 0,0 l/m 0 min 0 min 0 W/m 3,2 km/h (1 Bft) 95,74 %
07.07.2019 03:42 14,2 C 12,8 C 12,8 C 94 % 1013,0 hPa 0,0 l/m 0 min 0 min 0 W/m 3,2 km/h (1 Bft) 100,00 %
07.07.2019 03:44 14,2 C 12,8 C 12,8 C 94 % 1013,0 hPa 0,0 l/m 0 min 0 min 0 W/m 0,0 km/h (0 Bft) 97,87 %
07.07.2019 03:46 14,2 C 12,8 C 12,8 C 94 % 1012,9 hPa 0,0 l/m 0 min 0 min 0 W/m 0,0 km/h (0 Bft) 100,00 %
07.07.2019 03:48 14,2 C 12,8 C 12,8 C 94 % 1013,0 hPa 0,0 l/m 0 min 0 min 0 W/m 3,2 km/h (1 Bft) 100,00 %
07.07.2019 03:50 14,2 C 12,8 C 12,8 C 94 % 1013,0 hPa 0,0 l/m 0 min 0 min 0 W/m 0,0 km/h (0 Bft) 93,62 %
07.07.2019 03:52 14,2 C 12,8 C 12,8 C 94 % 1013,0 hPa 0,0 l/m 0 min 0 min 0 W/m 6,4 km/h (2 Bft) 100,00 %
07.07.2019 03:54 14,2 C 12,8 C 12,8 C 94 % 1013,0 hPa 0,0 l/m 0 min 0 min 0 W/m 3,2 km/h (1 Bft) 100,00 %
07.07.2019 03:56 14,2 C 12,8 C 12,8 C 93 % 1013,0 hPa 0,0 l/m 0 min 0 min 0 W/m 6,4 km/h (2 Bft) 100,00 %
07.07.2019 03:58 14,2 C 12,8 C 12,8 C 93 % 1013,1 hPa 0,0 l/m 0 min 0 min 0 W/m 6,4 km/h (2 Bft) 100,00 %
07.07.2019 04:00 14,1 C 12,8 C 12,8 C 93 % 1013,1 hPa 0,0 l/m 0 min 0 min 0 W/m 3,2 km/h (1 Bft) 97,87 %
07.07.2019 04:02 14,1 C 12,2 C 12,8 C 93 % 1013,1 hPa 0,0 l/m 0 min 0 min 0 W/m 3,2 km/h (1 Bft) 95,65 %
07.07.2019 04:07 13,9 C 12,2 C 12,8 C 93 % 1013,1 hPa 0,0 l/m 0 min 0 min 0 W/m 6,4 km/h (2 Bft) 100,00 %
07.07.2019 04:08 13,9 C 12,2 C 12,8 C 93 % 1013,1 hPa 0,0 l/m 0 min 0 min 0 W/m 3,2 km/h (1 Bft) 100,00 %
07.07.2019 04:10 13,9 C 12,2 C 12,8 C 93 % 1013,1 hPa 0,0 l/m 0 min 0 min 0 W/m 3,2 km/h (1 Bft) 100,00 %
07.07.2019 04:12 13,9 C 12,2 C 12,2 C 93 % 1013,0 hPa 0,0 l/m 0 min 0 min 0 W/m 0,0 km/h (0 Bft) 97,87 %
07.07.2019 04:14 13,9 C 12,2 C 12,2 C 93 % 1012,9 hPa 0,0 l/m 0 min 0 min 0 W/m 6,4 km/h (2 Bft) 100,00 %
07.07.2019 04:16 13,8 C 12,2 C 12,2 C 93 % 1013,0 hPa 0,0 l/m 0 min 0 min 0 W/m 3,2 km/h (1 Bft) 100,00 %
07.07.2019 04:18 13,8 C 12,2 C 12,2 C 93 % 1013,1 hPa 0,0 l/m 0 min 0 min 0 W/m 9,7 km/h (2 Bft) 100,00 %
07.07.2019 04:20 13,8 C 12,2 C 12,8 C 93 % 1013,1 hPa 0,0 l/m 0 min 0 min 0 W/m 3,2 km/h (1 Bft) 100,00 %
07.07.2019 04:22 13,8 C 12,2 C 12,2 C 93 % 1013,1 hPa 0,0 l/m 0 min 0 min 0 W/m 3,2 km/h (1 Bft) 100,00 %
07.07.2019 04:24 13,8 C 12,2 C 12,2 C 93 % 1013,1 hPa 0,0 l/m 0 min 0 min 0 W/m 6,4 km/h (2 Bft) 100,00 %
07.07.2019 04:26 13,7 C 12,2 C 12,2 C 93 % 1013,1 hPa 0,0 l/m 0 min 0 min 0 W/m 0,0 km/h (0 Bft) 100,00 %
07.07.2019 04:28 13,7 C 12,2 C 12,2 C 92 % 1013,1 hPa 0,0 l/m 0 min 0 min 0 W/m 6,4 km/h (2 Bft) 100,00 %
07.07.2019 04:30 13,7 C 12,2 C 12,2 C 92 % 1013,1 hPa 0,0 l/m 0 min 0 min 0 W/m 0,0 km/h (0 Bft) 100,00 %
07.07.2019 04:32 13,7 C 12,2 C 12,2 C 92 % 1013,1 hPa 0,0 l/m 0 min 0 min 0 W/m 0,0 km/h (0 Bft) 97,83 %
07.07.2019 04:34 13,7 C 11,7 C 12,2 C 92 % 1013,1 hPa 0,0 l/m 0 min 0 min 0 W/m 0,0 km/h (0 Bft) 100,00 %
07.07.2019 04:36 13,7 C 11,7 C 12,2 C 92 % 1013,1 hPa 0,0 l/m 0 min 0 min 0 W/m 0,0 km/h (0 Bft) 97,87 %
07.07.2019 04:38 13,7 C 11,7 C 12,2 C 92 % 1013,1 hPa 0,0 l/m 0 min 0 min 0 W/m 0,0 km/h (0 Bft) 100,00 %
07.07.2019 04:40 13,6 C 11,7 C 11,7 C 92 % 1013,1 hPa 0,0 l/m 0 min 0 min 0 W/m 0,0 km/h (0 Bft) 97,87 %
07.07.2019 04:42 13,6 C 11,7 C 11,7 C 92 % 1013,1 hPa 0,0 l/m 0 min 0 min 0 W/m 0,0 km/h (0 Bft) 100,00 %
07.07.2019 04:44 13,6 C 11,7 C 11,7 C 92 % 1013,0 hPa 0,0 l/m 0 min 0 min 0 W/m 0,0 km/h (0 Bft) 97,83 %
07.07.2019 04:46 13,6 C 11,7 C 11,7 C 92 % 1013,1 hPa 0,0 l/m 0 min 0 min 0 W/m 0,0 km/h (0 Bft) 100,00 %
07.07.2019 04:48 13,6 C 11,7 C 11,7 C 92 % 1013,1 hPa 0,0 l/m 0 min 0 min 0 W/m 0,0 km/h (0 Bft) 100,00 %
07.07.2019 04:50 13,5 C 11,7 C 11,7 C 92 % 1013,1 hPa 0,0 l/m 0 min 0 min 0 W/m 0,0 km/h (0 Bft) 100,00 %
07.07.2019 04:52 13,5 C 11,1 C 11,7 C 92 % 1013,1 hPa 0,0 l/m 0 min 0 min 0 W/m 0,0 km/h (0 Bft) 97,87 %
07.07.2019 04:54 13,4 C 11,1 C 11,7 C 92 % 1013,1 hPa 0,0 l/m 0 min 0 min 0 W/m 0,0 km/h (0 Bft) 97,87 %
07.07.2019 04:56 13,4 C 11,1 C 11,7 C 92 % 1013,0 hPa 0,0 l/m 0 min 0 min 0 W/m 0,0 km/h (0 Bft) 100,00 %
07.07.2019 04:58 13,4 C 11,7 C 11,7 C 92 % 1013,1 hPa 0,0 l/m 0 min 0 min 0 W/m 0,0 km/h (0 Bft) 97,87 %
07.07.2019 05:00 13,3 C 11,1 C 11,7 C 92 % 1013,0 hPa 0,0 l/m 0 min 0 min 0 W/m 0,0 km/h (0 Bft) 95,74 %
07.07.2019 05:02 13,3 C 11,7 C 11,7 C 92 % 1013,0 hPa 0,0 l/m 0 min 0 min 0 W/m 0,0 km/h (0 Bft) 95,74 %
07.07.2019 05:04 13,3 C 11,7 C 11,7 C 92 % 1013,0 hPa 0,0 l/m 0 min 0 min 0 W/m 0,0 km/h (0 Bft) 97,87 %
07.07.2019 05:06 13,3 C 11,7 C 11,7 C 92 % 1013,1 hPa 0,0 l/m 0 min 0 min 0 W/m 0,0 km/h (0 Bft) 97,83 %
07.07.2019 05:08 13,3 C 11,7 C 11,7 C 92 % 1013,1 hPa 0,0 l/m 0 min 0 min 0 W/m 0,0 km/h (0 Bft) 97,87 %
07.07.2019 05:10 13,2 C 11,7 C 11,7 C 92 % 1013,0 hPa 0,0 l/m 0 min 0 min 0 W/m 0,0 km/h (0 Bft) 97,87 %
07.07.2019 05:12 13,2 C 11,7 C 11,7 C 92 % 1013,0 hPa 0,0 l/m 0 min 0 min 0 W/m 0,0 km/h (0 Bft) 97,87 %
07.07.2019 05:14 13,2 C 11,7 C 11,7 C 92 % 1013,0 hPa 0,0 l/m 0 min 0 min 0 W/m 0,0 km/h (0 Bft) 97,87 %
07.07.2019 05:16 13,2 C 11,7 C 11,7 C 92 % 1013,0 hPa 0,0 l/m 0 min 0 min 0 W/m 0,0 km/h (0 Bft) 95,74 %
07.07.2019 05:18 13,2 C 11,7 C 11,7 C 92 % 1013,1 hPa 0,0 l/m 0 min 0 min 0 W/m 0,0 km/h (0 Bft) 97,83 %
07.07.2019 05:20 13,2 C 11,7 C 11,7 C 92 % 1013,1 hPa 0,0 l/m 0 min 0 min 0 W/m 0,0 km/h (0 Bft) 97,87 %
07.07.2019 05:22 13,1 C 11,7 C 11,7 C 92 % 1013,1 hPa 0,0 l/m 0 min 0 min 0 W/m 0,0 km/h (0 Bft) 95,74 %
07.07.2019 05:24 13,1 C 11,7 C 11,7 C 92 % 1013,1 hPa 0,0 l/m 0 min 0 min 0 W/m 0,0 km/h (0 Bft) 95,74 %
07.07.2019 05:26 13,1 C 11,7 C 11,7 C 92 % 1013,1 hPa 0,0 l/m 0 min 0 min 0 W/m 3,2 km/h (1 Bft) 95,74 %
07.07.2019 05:28 13,1 C 11,7 C 11,7 C 92 % 1013,1 hPa 0,0 l/m 0 min 0 min 0 W/m 0,0 km/h (0 Bft) 97,87 %
07.07.2019 05:30 13,1 C 11,7 C 11,7 C 92 % 1013,1 hPa 0,0 l/m 0 min 0 min 0 W/m 0,0 km/h (0 Bft) 95,65 %
07.07.2019 05:32 13,1 C 11,7 C 11,7 C 92 % 1013,1 hPa 0,0 l/m 0 min 0 min 0 W/m 0,0 km/h (0 Bft) 95,74 %
07.07.2019 05:34 13,1 C 11,7 C 11,7 C 92 % 1013,1 hPa 0,0 l/m 0 min 0 min 0 W/m 3,2 km/h (1 Bft) 93,62 %
07.07.2019 05:36 13,1 C 11,7 C 11,7 C 93 % 1013,0 hPa 0,0 l/m 0 min 0 min 1 W/m 3,2 km/h (1 Bft) 93,62 %
07.07.2019 05:38 13,0 C 11,7 C 11,7 C 93 % 1013,1 hPa 0,0 l/m 0 min 0 min 5 W/m 3,2 km/h (1 Bft) 95,74 %
07.07.2019 05:40 13,0 C 11,7 C 11,7 C 93 % 1013,1 hPa 0,0 l/m 0 min 0 min 5 W/m 0,0 km/h (0 Bft) 95,74 %
07.07.2019 05:42 13,0 C 11,7 C 11,7 C 93 % 1013,1 hPa 0,0 l/m 0 min 0 min 5 W/m 0,0 km/h (0 Bft) 93,48 %
07.07.2019 05:44 13,0 C 11,7 C 11,7 C 93 % 1013,1 hPa 0,0 l/m 0 min 0 min 7 W/m 3,2 km/h (1 Bft) 95,74 %
07.07.2019 05:46 13,0 C 11,7 C 11,7 C 93 % 1013,1 hPa 0,0 l/m 0 min 0 min 7 W/m 0,0 km/h (0 Bft) 97,87 %
07.07.2019 05:48 13,0 C 11,7 C 11,7 C 93 % 1013,2 hPa 0,0 l/m 0 min 0 min 9 W/m 0,0 km/h (0 Bft) 97,87 %
07.07.2019 05:50 12,9 C 11,7 C 11,7 C 93 % 1013,2 hPa 0,0 l/m 0 min 0 min 11 W/m 0,0 km/h (0 Bft) 97,87 %
07.07.2019 05:52 12,9 C 11,7 C 11,7 C 93 % 1013,3 hPa 0,0 l/m 0 min 0 min 11 W/m 0,0 km/h (0 Bft) 95,74 %
07.07.2019 05:54 12,9 C 11,7 C 11,7 C 93 % 1013,2 hPa 0,0 l/m 0 min 0 min 12 W/m 0,0 km/h (0 Bft) 97,83 %
07.07.2019 05:56 12,9 C 11,7 C 11,7 C 93 % 1013,3 hPa 0,0 l/m 0 min 0 min 12 W/m 0,0 km/h (0 Bft) 97,87 %
07.07.2019 05:58 12,9 C 11,7 C 11,7 C 93 % 1013,3 hPa 0,0 l/m 0 min 0 min 15 W/m 0,0 km/h (0 Bft) 97,87 %
07.07.2019 06:00 12,9 C 11,7 C 11,7 C 93 % 1013,3 hPa 0,0 l/m 0 min 0 min 15 W/m 0,0 km/h (0 Bft) 97,87 %
07.07.2019 06:02 12,9 C 11,7 C 11,7 C 93 % 1013,3 hPa 0,0 l/m 0 min 0 min 14 W/m 0,0 km/h (0 Bft) 97,87 %
07.07.2019 06:04 12,9 C 11,7 C 11,7 C 93 % 1013,2 hPa 0,0 l/m 0 min 0 min 14 W/m 0,0 km/h (0 Bft) 97,87 %
07.07.2019 06:08 12,8 C 11,1 C 11,7 C 93 % 1013,3 hPa 0,0 l/m 0 min 0 min 12 W/m 0,0 km/h (0 Bft) 96,77 %
07.07.2019 06:10 12,8 C 11,1 C 11,7 C 93 % 1013,3 hPa 0,0 l/m 0 min 0 min 13 W/m 0,0 km/h (0 Bft) 95,74 %
07.07.2019 06:12 12,8 C 11,1 C 11,1 C 93 % 1013,3 hPa 0,0 l/m 0 min 0 min 14 W/m 0,0 km/h (0 Bft) 97,87 %
07.07.2019 06:14 12,8 C 11,1 C 11,7 C 93 % 1013,4 hPa 0,0 l/m 0 min 0 min 14 W/m 0,0 km/h (0 Bft) 97,87 %
07.07.2019 06:16 12,7 C 11,1 C 11,1 C 93 % 1013,4 hPa 0,0 l/m 0 min 0 min 16 W/m 0,0 km/h (0 Bft) 97,83 %
07.07.2019 06:18 12,7 C 11,1 C 11,1 C 93 % 1013,5 hPa 0,0 l/m 0 min 0 min 17 W/m 0,0 km/h (0 Bft) 97,87 %
07.07.2019 06:20 12,7 C 11,1 C 11,1 C 93 % 1013,6 hPa 0,0 l/m 0 min 0 min 20 W/m 0,0 km/h (0 Bft) 100,00 %
07.07.2019 06:22 12,7 C 11,1 C 11,7 C 93 % 1013,6 hPa 0,0 l/m 0 min 0 min 26 W/m 0,0 km/h (0 Bft) 100,00 %
07.07.2019 06:24 12,7 C 11,7 C 11,7 C 93 % 1013,6 hPa 0,0 l/m 0 min 0 min 30 W/m 0,0 km/h (0 Bft) 97,87 %
07.07.2019 06:26 12,7 C 11,7 C 11,7 C 93 % 1013,6 hPa 0,0 l/m 0 min 0 min 34 W/m 0,0 km/h (0 Bft) 97,87 %
07.07.2019 06:28 12,7 C 11,7 C 11,7 C 93 % 1013,6 hPa 0,0 l/m 0 min 0 min 39 W/m 0,0 km/h (0 Bft) 100,00 %
07.07.2019 06:30 12,7 C 11,7 C 11,7 C 93 % 1013,6 hPa 0,0 l/m 0 min 0 min 44 W/m 0,0 km/h (0 Bft) 100,00 %
07.07.2019 06:32 12,6 C 11,7 C 11,7 C 93 % 1013,7 hPa 0,0 l/m 0 min 0 min 46 W/m 0,0 km/h (0 Bft) 100,00 %
07.07.2019 06:34 12,6 C 11,7 C 12,2 C 93 % 1013,6 hPa 0,0 l/m 0 min 0 min 48 W/m 0,0 km/h (0 Bft) 97,87 %
07.07.2019 06:36 12,6 C 12,2 C 12,2 C 93 % 1013,6 hPa 0,0 l/m 0 min 0 min 49 W/m 6,4 km/h (2 Bft) 95,74 %
07.07.2019 06:38 12,6 C 12,2 C 12,2 C 93 % 1013,7 hPa 0,0 l/m 0 min 0 min 52 W/m 3,2 km/h (1 Bft) 95,74 %
07.07.2019 06:40 12,7 C 12,2 C 12,2 C 93 % 1013,7 hPa 0,0 l/m 0 min 0 min 51 W/m 0,0 km/h (0 Bft) 97,83 %
07.07.2019 06:42 12,7 C 12,2 C 12,2 C 93 % 1013,7 hPa 0,0 l/m 0 min 0 min 42 W/m 0,0 km/h (0 Bft) 95,74 %
07.07.2019 06:44 12,7 C 12,2 C 12,2 C 93 % 1013,7 hPa 0,0 l/m 0 min 0 min 36 W/m 0,0 km/h (0 Bft) 95,74 %
07.07.2019 06:46 12,7 C 12,2 C 12,2 C 93 % 1013,7 hPa 0,0 l/m 0 min 0 min 33 W/m 0,0 km/h (0 Bft) 97,87 %
07.07.2019 06:48 12,7 C 12,2 C 12,2 C 94 % 1013,7 hPa 0,0 l/m 0 min 0 min 33 W/m 0,0 km/h (0 Bft) 97,87 %
07.07.2019 06:50 12,7 C 12,2 C 12,2 C 94 % 1013,8 hPa 0,0 l/m 0 min 0 min 36 W/m 0,0 km/h (0 Bft) 97,87 %
07.07.2019 06:52 12,7 C 12,2 C 12,2 C 94 % 1013,7 hPa 0,0 l/m 0 min 0 min 42 W/m 0,0 km/h (0 Bft) 97,83 %
07.07.2019 06:54 12,8 C 12,2 C 12,2 C 94 % 1013,7 hPa 0,0 l/m 0 min 0 min 46 W/m 3,2 km/h (1 Bft) 97,87 %
07.07.2019 06:56 12,8 C 12,2 C 12,2 C 94 % 1013,7 hPa 0,0 l/m 0 min 0 min 47 W/m 0,0 km/h (0 Bft) 97,87 %
07.07.2019 06:58 12,8 C 12,2 C 12,8 C 94 % 1013,7 hPa 0,0 l/m 0 min 0 min 48 W/m 0,0 km/h (0 Bft) 97,87 %
07.07.2019 07:00 12,8 C 12,2 C 12,8 C 94 % 1013,9 hPa 0,0 l/m 0 min 0 min 52 W/m 0,0 km/h (0 Bft) 97,87 %
07.07.2019 07:02 12,8 C 12,2 C 12,8 C 94 % 1013,9 hPa 0,0 l/m 0 min 0 min 58 W/m 3,2 km/h (1 Bft) 97,83 %
07.07.2019 07:04 12,8 C 12,2 C 12,8 C 94 % 1013,9 hPa 0,0 l/m 0 min 0 min 53 W/m 3,2 km/h (1 Bft) 97,87 %
07.07.2019 07:06 12,9 C 12,2 C 12,8 C 94 % 1013,9 hPa 0,0 l/m 0 min 0 min 46 W/m 0,0 km/h (0 Bft) 95,74 %
07.07.2019 07:08 12,9 C 12,2 C 12,8 C 94 % 1013,9 hPa 0,0 l/m 0 min 0 min 46 W/m 0,0 km/h (0 Bft) 97,87 %
07.07.2019 07:10 12,9 C 12,8 C 12,8 C 94 % 1014,0 hPa 0,0 l/m 0 min 0 min 48 W/m 0,0 km/h (0 Bft) 97,87 %
07.07.2019 07:12 12,9 C 12,8 C 12,8 C 94 % 1013,9 hPa 0,0 l/m 0 min 0 min 53 W/m 0,0 km/h (0 Bft) 95,74 %
07.07.2019 07:14 12,9 C 12,8 C 12,8 C 94 % 1013,8 hPa 0,0 l/m 0 min 0 min 53 W/m 3,2 km/h (1 Bft) 97,83 %
07.07.2019 07:16 12,9 C 12,8 C 12,8 C 94 % 1013,8 hPa 0,0 l/m 0 min 0 min 51 W/m 6,4 km/h (2 Bft) 97,87 %
07.07.2019 07:18 12,9 C 12,8 C 12,8 C 94 % 1014,0 hPa 0,0 l/m 0 min 0 min 49 W/m 0,0 km/h (0 Bft) 95,74 %
07.07.2019 07:20 13,0 C 12,8 C 12,8 C 94 % 1014,0 hPa 0,0 l/m 0 min 0 min 56 W/m 3,2 km/h (1 Bft) 95,74 %
07.07.2019 07:22 12,9 C 12,8 C 12,8 C 94 % 1013,9 hPa 0,0 l/m 0 min 0 min 64 W/m 0,0 km/h (0 Bft) 97,87 %
07.07.2019 07:24 13,0 C 13,3 C 12,8 C 94 % 1014,0 hPa 0,0 l/m 0 min 0 min 82 W/m 0,0 km/h (0 Bft) 97,87 %
07.07.2019 07:26 13,0 C 13,3 C 13,3 C 94 % 1013,9 hPa 0,0 l/m 0 min 0 min 94 W/m 0,0 km/h (0 Bft) 95,65 %
07.07.2019 07:28 13,0 C 13,3 C 13,3 C 94 % 1014,1 hPa 0,0 l/m 0 min 0 min 92 W/m 3,2 km/h (1 Bft) 95,74 %
07.07.2019 07:30 13,1 C 13,9 C 13,3 C 94 % 1014,0 hPa 0,0 l/m 0 min 0 min 76 W/m 0,0 km/h (0 Bft) 95,74 %
07.07.2019 07:32 13,1 C 13,3 C 13,3 C 94 % 1014,0 hPa 0,0 l/m 0 min 0 min 74 W/m 3,2 km/h (1 Bft) 95,74 %
07.07.2019 07:34 13,1 C 13,3 C 13,3 C 94 % 1013,9 hPa 0,0 l/m 0 min 0 min 74 W/m 6,4 km/h (2 Bft) 97,87 %
07.07.2019 07:36 13,1 C 13,3 C 13,3 C 94 % 1014,0 hPa 0,0 l/m 0 min 0 min 75 W/m 0,0 km/h (0 Bft) 97,87 %
07.07.2019 07:38 13,1 C 13,9 C 13,3 C 94 % 1014,0 hPa 0,0 l/m 0 min 0 min 76 W/m 0,0 km/h (0 Bft) 97,83 %
07.07.2019 07:40 13,1 C 13,9 C 13,3 C 94 % 1014,1 hPa 0,0 l/m 0 min 0 min 80 W/m 3,2 km/h (1 Bft) 97,87 %
07.07.2019 07:42 13,1 C 13,9 C 13,3 C 94 % 1014,1 hPa 0,0 l/m 0 min 0 min 83 W/m 9,7 km/h (2 Bft) 95,74 %
07.07.2019 07:44 13,1 C 13,9 C 13,3 C 94 % 1014,1 hPa 0,0 l/m 0 min 0 min 84 W/m 3,2 km/h (1 Bft) 95,74 %
07.07.2019 07:46 13,2 C 13,9 C 13,3 C 94 % 1014,1 hPa 0,0 l/m 0 min 0 min 84 W/m 0,0 km/h (0 Bft) 97,87 %
07.07.2019 07:48 13,2 C 13,9 C 13,9 C 94 % 1014,1 hPa 0,0 l/m 0 min 0 min 90 W/m 6,4 km/h (2 Bft) 97,87 %
07.07.2019 07:50 13,2 C 13,9 C 13,9 C 94 % 1014,1 hPa 0,0 l/m 0 min 0 min 95 W/m 3,2 km/h (1 Bft) 97,83 %
07.07.2019 07:52 13,2 C 13,9 C 13,9 C 94 % 1014,1 hPa 0,0 l/m 0 min 0 min 99 W/m 3,2 km/h (1 Bft) 97,87 %
07.07.2019 07:54 13,3 C 14,4 C 13,9 C 94 % 1014,1 hPa 0,0 l/m 0 min 0 min 101 W/m 9,7 km/h (2 Bft) 97,87 %
07.07.2019 07:56 13,3 C 14,4 C 13,9 C 94 % 1014,1 hPa 0,0 l/m 0 min 0 min 101 W/m 9,7 km/h (2 Bft) 97,87 %
07.07.2019 07:58 13,3 C 14,4 C 13,9 C 94 % 1014,1 hPa 0,0 l/m 0 min 0 min 105 W/m 0,0 km/h (0 Bft) 97,87 %
07.07.2019 08:00 13,3 C 14,4 C 13,9 C 94 % 1014,2 hPa 0,0 l/m 0 min 0 min 98 W/m 3,2 km/h (1 Bft) 97,83 %
07.07.2019 08:02 13,3 C 14,4 C 13,9 C 93 % 1014,2 hPa 0,0 l/m 0 min 0 min 101 W/m 3,2 km/h (1 Bft) 97,87 %
07.07.2019 08:04 13,4 C 15,0 C 13,9 C 93 % 1014,2 hPa 0,0 l/m 0 min 0 min 111 W/m 0,0 km/h (0 Bft) 97,87 %
07.07.2019 08:06 13,4 C 15,6 C 14,4 C 93 % 1014,2 hPa 0,0 l/m 0 min 0 min 119 W/m 0,0 km/h (0 Bft) 97,87 %
07.07.2019 08:08 13,5 C 16,1 C 14,4 C 93 % 1014,2 hPa 0,0 l/m 0 min 0 min 126 W/m 0,0 km/h (0 Bft) 97,87 %
07.07.2019 08:10 13,6 C 16,7 C 15,0 C 94 % 1014,1 hPa 0,0 l/m 0 min 0 min 123 W/m 0,0 km/h (0 Bft) 97,87 %
07.07.2019 08:12 13,6 C 17,2 C 15,0 C 94 % 1014,1 hPa 0,0 l/m 0 min 0 min 126 W/m 6,4 km/h (2 Bft) 97,83 %
07.07.2019 08:14 13,7 C 17,2 C 15,0 C 93 % 1014,2 hPa 0,0 l/m 0 min 0 min 127 W/m 9,7 km/h (2 Bft) 91,49 %
07.07.2019 08:16 13,7 C 17,2 C 15,0 C 93 % 1014,2 hPa 0,0 l/m 0 min 0 min 139 W/m 12,9 km/h (3 Bft) 95,74 %
07.07.2019 08:18 13,8 C 16,7 C 15,0 C 93 % 1014,2 hPa 0,0 l/m 0 min 0 min 139 W/m 9,7 km/h (2 Bft) 95,74 %
07.07.2019 08:20 13,8 C 16,1 C 15,0 C 93 % 1014,3 hPa 0,0 l/m 0 min 0 min 124 W/m 3,2 km/h (1 Bft) 95,74 %
07.07.2019 08:22 13,9 C 16,1 C 15,0 C 93 % 1014,3 hPa 0,0 l/m 0 min 0 min 119 W/m 6,4 km/h (2 Bft) 95,74 %
07.07.2019 08:24 13,9 C 16,1 C 15,0 C 92 % 1014,3 hPa 0,0 l/m 0 min 0 min 124 W/m 9,7 km/h (2 Bft) 95,65 %
07.07.2019 08:26 14,0 C 16,7 C 15,0 C 92 % 1014,3 hPa 0,0 l/m 0 min 0 min 131 W/m 9,7 km/h (2 Bft) 95,74 %
07.07.2019 08:28 14,1 C 17,2 C 15,0 C 92 % 1014,3 hPa 0,0 l/m 0 min 0 min 129 W/m 3,2 km/h (1 Bft) 93,62 %
07.07.2019 08:30 14,2 C 16,7 C 15,0 C 92 % 1014,2 hPa 0,0 l/m 0 min 0 min 129 W/m 3,2 km/h (1 Bft) 97,87 %
07.07.2019 08:32 14,2 C 17,2 C 15,0 C 91 % 1014,2 hPa 0,0 l/m 0 min 0 min 132 W/m 6,4 km/h (2 Bft) 97,87 %
07.07.2019 08:34 14,2 C 17,2 C 15,0 C 91 % 1014,3 hPa 0,0 l/m 0 min 0 min 135 W/m 6,4 km/h (2 Bft) 97,87 %
07.07.2019 08:36 14,2 C 16,7 C 15,6 C 91 % 1014,3 hPa 0,0 l/m 0 min 0 min 134 W/m 3,2 km/h (1 Bft) 97,83 %
07.07.2019 08:38 14,2 C 16,1 C 15,6 C 90 % 1014,3 hPa 0,0 l/m 0 min 0 min 143 W/m 6,4 km/h (2 Bft) 97,87 %
07.07.2019 08:40 14,3 C 17,2 C 16,1 C 90 % 1014,3 hPa 0,0 l/m 0 min 0 min 146 W/m 0,0 km/h (0 Bft) 97,87 %
07.07.2019 08:42 14,4 C 16,7 C 16,1 C 90 % 1014,3 hPa 0,0 l/m 0 min 0 min 142 W/m 6,4 km/h (2 Bft) 95,74 %
07.07.2019 08:44 14,5 C 17,8 C 17,2 C 89 % 1014,3 hPa 0,0 l/m 0 min 0 min 142 W/m 16,1 km/h (3 Bft) 95,74 %
07.07.2019 08:46 14,6 C 19,4 C 18,9 C 89 % 1014,4 hPa 0,0 l/m 0 min 0 min 153 W/m 6,4 km/h (2 Bft) 95,74 %
07.07.2019 08:48 14,7 C 21,7 C 21,1 C 89 % 1014,4 hPa 0,0 l/m 0 min 0 min 167 W/m 6,4 km/h (2 Bft) 97,83 %
07.07.2019 08:50 14,9 C 22,8 C 22,2 C 88 % 1014,4 hPa 0,0 l/m 0 min 0 min 149 W/m 6,4 km/h (2 Bft) 97,87 %
07.07.2019 08:52 15,0 C 22,8 C 23,3 C 88 % 1014,3 hPa 0,0 l/m 0 min 0 min 123 W/m 3,2 km/h (1 Bft) 100,00 %
07.07.2019 08:54 15,2 C 22,2 C 23,3 C 88 % 1014,3 hPa 0,0 l/m 0 min 0 min 100 W/m 9,7 km/h (2 Bft) 97,87 %
07.07.2019 08:56 15,3 C 23,3 C 23,3 C 87 % 1014,3 hPa 0,0 l/m 0 min 0 min 93 W/m 6,4 km/h (2 Bft) 100,00 %
07.07.2019 08:58 15,5 C 23,3 C 23,3 C 86 % 1014,3 hPa 0,0 l/m 0 min 0 min 98 W/m 6,4 km/h (2 Bft) 97,87 %
07.07.2019 09:00 15,7 C 23,3 C 23,9 C 85 % 1014,3 hPa 0,0 l/m 0 min 0 min 112 W/m 6,4 km/h (2 Bft) 100,00 %
07.07.2019 09:02 15,9 C 22,8 C 23,9 C 84 % 1014,3 hPa 0,0 l/m 0 min 0 min 133 W/m 6,4 km/h (2 Bft) 98,15 %
07.07.2019 09:04 16,1 C 23,9 C 24,4 C 84 % 1014,3 hPa 0,0 l/m 0 min 0 min 161 W/m 6,4 km/h (2 Bft) 100,00 %
07.07.2019 09:06 16,2 C 23,9 C 24,4 C 83 % 1014,3 hPa 0,0 l/m 0 min 0 min 200 W/m 6,4 km/h (2 Bft) 100,00 %
07.07.2019 09:08 16,3 C 23,9 C 25,0 C 81 % 1014,3 hPa 0,0 l/m 0 min 0 min 241 W/m 6,4 km/h (2 Bft) 97,87 %
07.07.2019 09:10 16,5 C 23,9 C 24,4 C 80 % 1014,4 hPa 0,0 l/m 2 min 0 min 292 W/m 9,7 km/h (2 Bft) 100,00 %
07.07.2019 09:12 16,7 C 23,9 C 25,0 C 81 % 1014,4 hPa 0,0 l/m 2 min 0 min 342 W/m 3,2 km/h (1 Bft) 100,00 %
07.07.2019 09:14 16,8 C 22,2 C 23,3 C 79 % 1014,4 hPa 0,0 l/m 2 min 0 min 301 W/m 9,7 km/h (2 Bft) 100,00 %
07.07.2019 09:16 16,9 C 20,6 C 21,1 C 78 % 1014,4 hPa 0,0 l/m 0 min 0 min 138 W/m 12,9 km/h (3 Bft) 100,00 %
07.07.2019 09:18 16,9 C 18,9 C 19,4 C 77 % 1014,3 hPa 0,0 l/m 0 min 0 min 137 W/m 9,7 km/h (2 Bft) 100,00 %
07.07.2019 09:20 16,9 C 20,6 C 20,6 C 76 % 1014,3 hPa 0,0 l/m 2 min 0 min 284 W/m 12,9 km/h (3 Bft) 100,00 %
07.07.2019 09:22 16,9 C 21,7 C 22,2 C 75 % 1014,3 hPa 0,0 l/m 2 min 0 min 537 W/m 9,7 km/h (2 Bft) 100,00 %
07.07.2019 09:24 17,0 C 21,1 C 21,7 C 74 % 1014,3 hPa 0,0 l/m 2 min 0 min 524 W/m 12,9 km/h (3 Bft) 100,00 %
07.07.2019 09:26 17,1 C 22,8 C 22,8 C 75 % 1014,3 hPa 0,0 l/m 2 min 0 min 534 W/m 6,4 km/h (2 Bft) 100,00 %
07.07.2019 09:28 17,2 C 23,3 C 23,9 C 74 % 1014,4 hPa 0,0 l/m 2 min 0 min 552 W/m 9,7 km/h (2 Bft) 95,65 %
07.07.2019 09:30 17,2 C 23,3 C 24,4 C 74 % 1014,3 hPa 0,0 l/m 2 min 0 min 586 W/m 6,4 km/h (2 Bft) 100,00 %
07.07.2019 09:32 17,3 C 21,7 C 22,8 C 73 % 1014,3 hPa 0,0 l/m 2 min 0 min 433 W/m 9,7 km/h (2 Bft) 100,00 %
07.07.2019 09:34 17,4 C 21,1 C 21,7 C 73 % 1014,3 hPa 0,0 l/m 0 min 0 min 177 W/m 6,4 km/h (2 Bft) 100,00 %
07.07.2019 09:36 17,4 C 22,2 C 22,2 C 73 % 1014,3 hPa 0,0 l/m 0 min 0 min 213 W/m 6,4 km/h (2 Bft) 100,00 %
07.07.2019 09:38 17,5 C 23,3 C 23,9 C 73 % 1014,3 hPa 0,0 l/m 2 min 0 min 378 W/m 6,4 km/h (2 Bft) 100,00 %
07.07.2019 09:40 17,6 C 24,4 C 25,0 C 72 % 1014,3 hPa 0,0 l/m 2 min 0 min 634 W/m 6,4 km/h (2 Bft) 100,00 %
07.07.2019 09:42 17,7 C 25,6 C 26,1 C 72 % 1014,4 hPa 0,0 l/m 2 min 0 min 637 W/m 6,4 km/h (2 Bft) 100,00 %
07.07.2019 09:44 17,8 C 26,1 C 26,1 C 71 % 1014,5 hPa 0,0 l/m 2 min 0 min 631 W/m 9,7 km/h (2 Bft) 100,00 %
07.07.2019 09:46 18,0 C 26,7 C 27,8 C 71 % 1014,4 hPa 0,0 l/m 2 min 0 min 629 W/m 6,4 km/h (2 Bft) 97,87 %
07.07.2019 09:48 18,2 C 26,7 C 27,2 C 71 % 1014,5 hPa 0,0 l/m 2 min 0 min 629 W/m 6,4 km/h (2 Bft) 97,87 %
07.07.2019 09:50 18,3 C 26,7 C 27,8 C 69 % 1014,4 hPa 0,0 l/m 2 min 0 min 632 W/m 12,9 km/h (3 Bft) 97,83 %
07.07.2019 09:52 18,4 C 25,6 C 27,8 C 68 % 1014,5 hPa 0,0 l/m 2 min 0 min 637 W/m 6,4 km/h (2 Bft) 95,74 %
07.07.2019 09:54 18,5 C 24,4 C 25,6 C 68 % 1014,5 hPa 0,0 l/m 2 min 0 min 638 W/m 6,4 km/h (2 Bft) 97,87 %
07.07.2019 09:56 18,6 C 25,6 C 26,7 C 68 % 1014,5 hPa 0,0 l/m 2 min 0 min 678 W/m 6,4 km/h (2 Bft) 97,87 %
07.07.2019 09:58 18,7 C 26,7 C 27,2 C 67 % 1014,5 hPa 0,0 l/m 2 min 0 min 676 W/m 9,7 km/h (2 Bft) 97,87 %
07.07.2019 10:00 18,8 C 27,2 C 27,2 C 66 % 1014,5 hPa 0,0 l/m 2 min 0 min 674 W/m 9,7 km/h (2 Bft) 97,87 %
07.07.2019 10:02 18,9 C 27,8 C 28,3 C 67 % 1014,5 hPa 0,0 l/m 2 min 0 min 676 W/m 6,4 km/h (2 Bft) 97,83 %
07.07.2019 10:04 19,1 C 27,2 C 27,8 C 66 % 1014,5 hPa 0,0 l/m 2 min 0 min 691 W/m 12,9 km/h (3 Bft) 97,87 %
07.07.2019 10:06 19,2 C 27,2 C 28,3 C 64 % 1014,5 hPa 0,0 l/m 2 min 0 min 722 W/m 16,1 km/h (3 Bft) 95,74 %
07.07.2019 10:08 19,2 C 23,3 C 24,4 C 63 % 1014,5 hPa 0,0 l/m 2 min 0 min 513 W/m 12,9 km/h (3 Bft) 97,87 %
07.07.2019 10:10 19,2 C 25,0 C 26,1 C 64 % 1014,5 hPa 0,0 l/m 2 min 0 min 544 W/m 6,4 km/h (2 Bft) 97,87 %
07.07.2019 10:12 19,2 C 22,8 C 23,9 C 64 % 1014,7 hPa 0,0 l/m 2 min 0 min 620 W/m 6,4 km/h (2 Bft) 97,87 %
07.07.2019 10:14 19,2 C 25,0 C 25,0 C 64 % 1014,6 hPa 0,0 l/m 2 min 0 min 486 W/m 6,4 km/h (2 Bft) 97,83 %
07.07.2019 10:16 19,2 C 26,1 C 26,1 C 65 % 1014,6 hPa 0,0 l/m 2 min 0 min 806 W/m 16,1 km/h (3 Bft) 97,87 %
07.07.2019 10:18 19,3 C 26,7 C 27,2 C 64 % 1014,6 hPa 0,0 l/m 2 min 0 min 825 W/m 16,1 km/h (3 Bft) 97,87 %
07.07.2019 10:20 19,4 C 27,2 C 27,8 C 64 % 1014,7 hPa 0,0 l/m 2 min 0 min 839 W/m 12,9 km/h (3 Bft) 97,87 %
07.07.2019 10:22 19,5 C 27,8 C 27,8 C 63 % 1014,7 hPa 0,0 l/m 2 min 0 min 861 W/m 9,7 km/h (2 Bft) 97,87 %
07.07.2019 10:24 19,6 C 25,0 C 25,6 C 62 % 1014,7 hPa 0,0 l/m 2 min 0 min 867 W/m 16,1 km/h (3 Bft) 97,87 %
07.07.2019 10:26 19,6 C 22,8 C 22,8 C 62 % 1014,7 hPa 0,0 l/m 0 min 0 min 275 W/m 12,9 km/h (3 Bft) 97,83 %
07.07.2019 10:28 19,6 C 24,4 C 24,4 C 62 % 1014,7 hPa 0,0 l/m 2 min 0 min 337 W/m 6,4 km/h (2 Bft) 97,87 %
07.07.2019 10:30 19,6 C 26,1 C 25,6 C 62 % 1014,7 hPa 0,0 l/m 2 min 0 min 849 W/m 9,7 km/h (2 Bft) 97,87 %
07.07.2019 10:32 19,7 C 27,2 C 27,2 C 62 % 1014,7 hPa 0,0 l/m 2 min 0 min 851 W/m 9,7 km/h (2 Bft) 97,92 %
07.07.2019 10:34 19,8 C 24,4 C 24,4 C 62 % 1014,7 hPa 0,0 l/m 2 min 0 min 472 W/m 16,1 km/h (3 Bft) 97,87 %
07.07.2019 10:36 19,8 C 23,9 C 23,9 C 62 % 1014,6 hPa 0,0 l/m 0 min 0 min 273 W/m 9,7 km/h (2 Bft) 97,87 %
07.07.2019 10:38 19,8 C 24,4 C 23,9 C 62 % 1014,7 hPa 0,0 l/m 0 min 0 min 302 W/m 6,4 km/h (2 Bft) 100,00 %
07.07.2019 10:40 19,7 C 22,8 C 22,8 C 61 % 1014,7 hPa 0,0 l/m 0 min 0 min 294 W/m 6,4 km/h (2 Bft) 97,87 %
07.07.2019 10:42 19,7 C 21,7 C 22,2 C 61 % 1014,7 hPa 0,0 l/m 0 min 0 min 221 W/m 9,7 km/h (2 Bft) 95,74 %
07.07.2019 10:44 19,7 C 24,4 C 24,4 C 62 % 1014,6 hPa 0,0 l/m 2 min 0 min 533 W/m 6,4 km/h (2 Bft) 95,74 %
07.07.2019 10:46 19,7 C 27,2 C 27,2 C 63 % 1014,7 hPa 0,0 l/m 2 min 0 min 861 W/m 6,4 km/h (2 Bft) 97,87 %
07.07.2019 10:48 19,8 C 28,3 C 28,3 C 63 % 1014,8 hPa 0,0 l/m 2 min 0 min 882 W/m 6,4 km/h (2 Bft) 97,83 %
07.07.2019 10:50 20,0 C 27,8 C 28,3 C 62 % 1014,7 hPa 0,0 l/m 2 min 0 min 903 W/m 9,7 km/h (2 Bft) 97,87 %
07.07.2019 10:52 20,0 C 23,9 C 25,0 C 60 % 1014,8 hPa 0,0 l/m 2 min 0 min 490 W/m 9,7 km/h (2 Bft) 95,74 %
07.07.2019 10:54 20,0 C 22,8 C 22,8 C 61 % 1014,8 hPa 0,0 l/m 0 min 0 min 294 W/m 16,1 km/h (3 Bft) 97,87 %
07.07.2019 10:56 19,9 C 21,7 C 21,7 C 61 % 1014,8 hPa 0,0 l/m 0 min 0 min 260 W/m 9,7 km/h (2 Bft) 97,87 %
07.07.2019 10:58 19,9 C 20,6 C 20,6 C 60 % 1014,8 hPa 0,0 l/m 0 min 0 min 238 W/m 6,4 km/h (2 Bft) 97,87 %
07.07.2019 11:00 19,8 C 19,4 C 20,0 C 60 % 1014,8 hPa 0,0 l/m 0 min 0 min 250 W/m 12,9 km/h (3 Bft) 97,83 %
07.07.2019 11:02 19,7 C 20,0 C 20,0 C 61 % 1014,8 hPa 0,0 l/m 0 min 0 min 267 W/m 9,7 km/h (2 Bft) 97,30 %
07.07.2019 11:04 19,6 C 19,4 C 20,0 C 60 % 1014,8 hPa 0,0 l/m 0 min 0 min 226 W/m 9,7 km/h (2 Bft) 97,83 %
07.07.2019 11:06 19,4 C 19,4 C 19,4 C 60 % 1014,9 hPa 0,0 l/m 0 min 0 min 177 W/m 6,4 km/h (2 Bft) 93,62 %
07.07.2019 11:08 19,4 C 18,9 C 18,9 C 61 % 1014,9 hPa 0,0 l/m 0 min 0 min 159 W/m 6,4 km/h (2 Bft) 97,87 %
07.07.2019 11:10 19,2 C 18,3 C 18,3 C 60 % 1015,0 hPa 0,0 l/m 0 min 0 min 154 W/m 6,4 km/h (2 Bft) 97,87 %
07.07.2019 11:12 19,1 C 17,8 C 18,3 C 60 % 1014,9 hPa 0,0 l/m 0 min 0 min 148 W/m 3,2 km/h (1 Bft) 95,74 %
07.07.2019 11:14 19,1 C 18,3 C 17,8 C 62 % 1015,0 hPa 0,0 l/m 0 min 0 min 150 W/m 6,4 km/h (2 Bft) 97,83 %
07.07.2019 11:16 19,0 C 18,3 C 18,3 C 62 % 1015,0 hPa 0,0 l/m 0 min 0 min 174 W/m 12,9 km/h (3 Bft) 97,87 %
07.07.2019 11:18 18,9 C 19,4 C 18,9 C 63 % 1015,0 hPa 0,0 l/m 0 min 0 min 243 W/m 6,4 km/h (2 Bft) 95,74 %
07.07.2019 11:20 18,9 C 22,8 C 22,8 C 63 % 1015,0 hPa 0,0 l/m 2 min 0 min 706 W/m 9,7 km/h (2 Bft) 97,87 %
07.07.2019 11:22 18,9 C 22,2 C 21,7 C 62 % 1014,9 hPa 0,0 l/m 2 min 0 min 838 W/m 9,7 km/h (2 Bft) 95,74 %
07.07.2019 11:24 18,9 C 21,1 C 21,1 C 63 % 1014,9 hPa 0,0 l/m 0 min 0 min 354 W/m 9,7 km/h (2 Bft) 100,00 %
07.07.2019 11:26 18,8 C 20,6 C 20,6 C 63 % 1014,8 hPa 0,0 l/m 0 min 0 min 338 W/m 9,7 km/h (2 Bft) 97,87 %
07.07.2019 11:28 18,8 C 20,6 C 20,6 C 63 % 1014,9 hPa 0,0 l/m 0 min 0 min 311 W/m 6,4 km/h (2 Bft) 97,83 %
07.07.2019 11:30 18,8 C 20,6 C 20,0 C 64 % 1014,9 hPa 0,0 l/m 0 min 0 min 246 W/m 9,7 km/h (2 Bft) 100,00 %
07.07.2019 11:32 18,8 C 20,6 C 20,0 C 63 % 1015,0 hPa 0,0 l/m 0 min 0 min 232 W/m 9,7 km/h (2 Bft) 100,00 %
07.07.2019 11:34 18,8 C 20,6 C 19,4 C 65 % 1014,9 hPa 0,0 l/m 0 min 0 min 226 W/m 6,4 km/h (2 Bft) 100,00 %
07.07.2019 11:36 18,8 C 20,6 C 19,4 C 64 % 1015,0 hPa 0,0 l/m 0 min 0 min 295 W/m 9,7 km/h (2 Bft) 100,00 %
07.07.2019 11:38 18,8 C 21,7 C 20,6 C 64 % 1015,0 hPa 0,0 l/m 0 min 0 min 333 W/m 9,7 km/h (2 Bft) 100,00 %
07.07.2019 11:40 18,9 C 21,7 C 20,6 C 64 % 1015,0 hPa 0,0 l/m 0 min 0 min 379 W/m 12,9 km/h (3 Bft) 100,00 %
07.07.2019 11:42 18,9 C 21,7 C 20,6 C 63 % 1014,9 hPa 0,0 l/m 2 min 0 min 389 W/m 12,9 km/h (3 Bft) 100,00 %
07.07.2019 11:44 18,9 C 21,1 C 20,6 C 64 % 1015,0 hPa 0,0 l/m 0 min 0 min 332 W/m 6,4 km/h (2 Bft) 100,00 %
07.07.2019 11:46 18,9 C 21,1 C 20,6 C 65 % 1014,9 hPa 0,0 l/m 0 min 0 min 281 W/m 6,4 km/h (2 Bft) 100,00 %
07.07.2019 11:48 18,9 C 21,1 C 20,0 C 66 % 1014,9 hPa 0,0 l/m 0 min 0 min 256 W/m 6,4 km/h (2 Bft) 97,87 %
07.07.2019 11:50 18,9 C 20,6 C 20,0 C 66 % 1014,9 hPa 0,0 l/m 0 min 0 min 237 W/m 6,4 km/h (2 Bft) 100,00 %
07.07.2019 11:52 18,9 C 20,0 C 19,4 C 65 % 1014,9 hPa 0,0 l/m 0 min 0 min 218 W/m 9,7 km/h (2 Bft) 97,87 %
07.07.2019 11:54 18,9 C 21,7 C 21,1 C 64 % 1015,0 hPa 0,0 l/m 0 min 0 min 254 W/m 12,9 km/h (3 Bft) 100,00 %
07.07.2019 11:56 19,0 C 25,0 C 23,9 C 65 % 1014,9 hPa 0,0 l/m 2 min 0 min 876 W/m 9,7 km/h (2 Bft) 100,00 %
07.07.2019 11:58 19,2 C 27,2 C 26,7 C 66 % 1014,9 hPa 0,0 l/m 2 min 0 min 1033 W/m 6,4 km/h (2 Bft) 95,74 %
07.07.2019 12:00 19,4 C 29,4 C 28,3 C 65 % 1015,0 hPa 0,0 l/m 2 min 0 min 814 W/m 9,7 km/h (2 Bft) 100,00 %
07.07.2019 12:02 19,7 C 27,2 C 27,2 C 62 % 1015,0 hPa 0,0 l/m 2 min 0 min 952 W/m 12,9 km/h (3 Bft) 100,00 %
07.07.2019 12:04 19,8 C 25,0 C 24,4 C 60 % 1015,0 hPa 0,0 l/m 2 min 0 min 472 W/m 22,5 km/h (4 Bft) 97,87 %
07.07.2019 12:08 19,8 C 21,7 C 21,1 C 60 % 1015,1 hPa 0,0 l/m 0 min 0 min 247 W/m 9,7 km/h (2 Bft) 97,87 %
07.07.2019 12:10 19,8 C 20,6 C 20,6 C 60 % 1015,0 hPa 0,0 l/m 0 min 0 min 238 W/m 9,7 km/h (2 Bft) 95,74 %
07.07.2019 12:12 19,7 C 20,0 C 20,0 C 59 % 1015,0 hPa 0,0 l/m 0 min 0 min 264 W/m 9,7 km/h (2 Bft) 97,87 %
07.07.2019 12:14 19,7 C 20,6 C 20,0 C 59 % 1015,1 hPa 0,0 l/m 0 min 0 min 288 W/m 9,7 km/h (2 Bft) 97,83 %
07.07.2019 12:16 19,6 C 20,6 C 19,4 C 60 % 1015,1 hPa 0,0 l/m 0 min 0 min 306 W/m 19,3 km/h (3 Bft) 95,74 %
07.07.2019 12:18 19,6 C 20,6 C 20,0 C 61 % 1015,1 hPa 0,0 l/m 0 min 0 min 310 W/m 16,1 km/h (3 Bft) 97,87 %
07.07.2019 12:20 19,6 C 20,6 C 20,0 C 60 % 1015,2 hPa 0,0 l/m 0 min 0 min 325 W/m 12,9 km/h (3 Bft) 97,87 %
07.07.2019 12:22 19,5 C 22,2 C 21,7 C 63 % 1015,1 hPa 0,0 l/m 0 min 0 min 370 W/m 6,4 km/h (2 Bft) 97,87 %
07.07.2019 12:24 19,6 C 26,1 C 26,1 C 63 % 1015,1 hPa 0,0 l/m 2 min 0 min 808 W/m 9,7 km/h (2 Bft) 97,83 %
07.07.2019 12:26 19,8 C 25,0 C 24,4 C 62 % 1015,1 hPa 0,0 l/m 2 min 0 min 649 W/m 9,7 km/h (2 Bft) 97,87 %
07.07.2019 12:28 19,9 C 23,3 C 23,3 C 62 % 1015,1 hPa 0,0 l/m 0 min 0 min 338 W/m 9,7 km/h (2 Bft) 97,87 %
07.07.2019 12:30 19,9 C 22,2 C 22,2 C 60 % 1015,1 hPa 0,0 l/m 0 min 0 min 285 W/m 9,7 km/h (2 Bft) 97,87 %
07.07.2019 12:32 19,8 C 21,1 C 21,1 C 61 % 1015,2 hPa 0,0 l/m 0 min 0 min 232 W/m 6,4 km/h (2 Bft) 95,74 %
07.07.2019 12:34 19,8 C 20,0 C 20,0 C 61 % 1015,3 hPa 0,0 l/m 0 min 0 min 189 W/m 16,1 km/h (3 Bft) 97,87 %
07.07.2019 12:36 19,7 C 19,4 C 19,4 C 62 % 1015,2 hPa 0,0 l/m 0 min 0 min 157 W/m 9,7 km/h (2 Bft) 95,74 %
07.07.2019 12:38 19,6 C 18,9 C 18,9 C 63 % 1015,3 hPa 0,0 l/m 0 min 0 min 143 W/m 12,9 km/h (3 Bft) 97,87 %
07.07.2019 12:40 19,5 C 18,9 C 18,3 C 64 % 1015,3 hPa 0,0 l/m 0 min 0 min 145 W/m 9,7 km/h (2 Bft) 97,83 %
07.07.2019 12:42 19,3 C 18,3 C 18,3 C 64 % 1015,3 hPa 0,0 l/m 0 min 0 min 151 W/m 12,9 km/h (3 Bft) 95,74 %
07.07.2019 12:44 19,2 C 18,3 C 18,3 C 64 % 1015,4 hPa 0,0 l/m 0 min 0 min 154 W/m 6,4 km/h (2 Bft) 97,87 %
07.07.2019 12:46 19,0 C 17,8 C 17,8 C 63 % 1015,4 hPa 0,0 l/m 0 min 0 min 156 W/m 9,7 km/h (2 Bft) 97,87 %
07.07.2019 12:48 18,9 C 18,3 C 17,8 C 65 % 1015,4 hPa 0,0 l/m 0 min 0 min 176 W/m 6,4 km/h (2 Bft) 97,87 %
07.07.2019 12:50 18,8 C 18,9 C 18,3 C 67 % 1015,4 hPa 0,0 l/m 0 min 0 min 209 W/m 6,4 km/h (2 Bft) 97,87 %
07.07.2019 12:52 18,8 C 18,9 C 18,3 C 66 % 1015,3 hPa 0,0 l/m 0 min 0 min 239 W/m 9,7 km/h (2 Bft) 95,65 %
07.07.2019 12:54 18,7 C 19,4 C 18,9 C 66 % 1015,3 hPa 0,0 l/m 0 min 0 min 271 W/m 3,2 km/h (1 Bft) 93,62 %
07.07.2019 12:56 18,7 C 19,4 C 18,9 C 67 % 1015,3 hPa 0,0 l/m 0 min 0 min 311 W/m 6,4 km/h (2 Bft) 95,74 %
07.07.2019 12:58 18,7 C 20,6 C 20,0 C 67 % 1015,3 hPa 0,0 l/m 0 min 0 min 395 W/m 9,7 km/h (2 Bft) 95,74 %
07.07.2019 13:00 18,7 C 21,7 C 21,7 C 68 % 1015,3 hPa 0,0 l/m 2 min 0 min 441 W/m 6,4 km/h (2 Bft) 93,62 %
07.07.2019 13:02 18,8 C 21,7 C 21,7 C 67 % 1015,3 hPa 0,0 l/m 0 min 0 min 405 W/m 6,4 km/h (2 Bft) 95,74 %
07.07.2019 13:04 18,8 C 21,1 C 21,1 C 67 % 1015,3 hPa 0,0 l/m 0 min 0 min 337 W/m 9,7 km/h (2 Bft) 93,48 %
07.07.2019 13:06 18,9 C 21,7 C 21,1 C 68 % 1015,3 hPa 0,0 l/m 0 min 0 min 359 W/m 6,4 km/h (2 Bft) 95,74 %
07.07.2019 13:08 19,0 C 23,3 C 23,9 C 67 % 1015,3 hPa 0,0 l/m 2 min 0 min 443 W/m 22,5 km/h (4 Bft) 97,87 %
07.07.2019 13:10 19,1 C 23,9 C 23,9 C 66 % 1015,3 hPa 0,0 l/m 2 min 0 min 455 W/m 16,1 km/h (3 Bft) 95,74 %
07.07.2019 13:12 19,2 C 23,9 C 23,9 C 65 % 1015,3 hPa 0,0 l/m 0 min 0 min 392 W/m 6,4 km/h (2 Bft) 93,62 %
07.07.2019 13:14 19,5 C 26,7 C 27,2 C 67 % 1015,3 hPa 0,0 l/m 2 min 0 min 703 W/m 6,4 km/h (2 Bft) 91,49 %
07.07.2019 13:16 19,8 C 28,3 C 28,3 C 66 % 1015,3 hPa 0,0 l/m 2 min 0 min 864 W/m 12,9 km/h (3 Bft) 93,48 %
07.07.2019 13:18 20,1 C 28,3 C 28,9 C 65 % 1015,3 hPa 0,0 l/m 2 min 0 min 1169 W/m 9,7 km/h (2 Bft) 93,62 %
07.07.2019 13:20 20,3 C 27,2 C 28,3 C 63 % 1015,3 hPa 0,0 l/m 2 min 0 min 864 W/m 9,7 km/h (2 Bft) 93,62 %
07.07.2019 13:22 20,6 C 26,1 C 26,1 C 64 % 1015,3 hPa 0,0 l/m 2 min 0 min 810 W/m 6,4 km/h (2 Bft) 95,74 %
07.07.2019 13:24 20,5 C 24,4 C 25,0 C 60 % 1015,3 hPa 0,0 l/m 0 min 0 min 387 W/m 6,4 km/h (2 Bft) 91,49 %
07.07.2019 13:26 20,6 C 25,6 C 26,1 C 61 % 1015,4 hPa 0,0 l/m 2 min 0 min 997 W/m 6,4 km/h (2 Bft) 93,48 %
07.07.2019 13:28 20,6 C 25,0 C 25,6 C 61 % 1015,4 hPa 0,0 l/m 0 min 0 min 414 W/m 9,7 km/h (2 Bft) 93,62 %
07.07.2019 13:30 20,7 C 25,0 C 25,6 C 61 % 1015,4 hPa 0,0 l/m 0 min 0 min 391 W/m 19,3 km/h (3 Bft) 95,74 %
07.07.2019 13:32 20,7 C 24,4 C 25,0 C 61 % 1015,3 hPa 0,0 l/m 2 min 0 min 498 W/m 12,9 km/h (3 Bft) 93,62 %
07.07.2019 13:34 20,8 C 23,9 C 23,9 C 60 % 1015,3 hPa 0,0 l/m 2 min 0 min 479 W/m 9,7 km/h (2 Bft) 95,74 %
07.07.2019 13:36 20,8 C 23,3 C 23,3 C 60 % 1015,3 hPa 0,0 l/m 2 min 0 min 492 W/m 9,7 km/h (2 Bft) 93,62 %
07.07.2019 13:38 20,7 C 23,3 C 22,8 C 60 % 1015,4 hPa 0,0 l/m 0 min 0 min 419 W/m 19,3 km/h (3 Bft) 95,65 %
07.07.2019 13:40 20,7 C 25,6 C 25,0 C 60 % 1015,4 hPa 0,0 l/m 2 min 0 min 584 W/m 9,7 km/h (2 Bft) 93,62 %
07.07.2019 13:42 20,7 C 25,6 C 25,0 C 59 % 1015,4 hPa 0,0 l/m 2 min 0 min 787 W/m 9,7 km/h (2 Bft) 91,49 %
07.07.2019 13:44 20,8 C 25,6 C 24,4 C 61 % 1015,4 hPa 0,0 l/m 2 min 0 min 604 W/m 9,7 km/h (2 Bft) 97,87 %
07.07.2019 13:46 20,9 C 25,0 C 24,4 C 60 % 1015,4 hPa 0,0 l/m 2 min 0 min 483 W/m 6,4 km/h (2 Bft) 97,87 %
07.07.2019 13:48 20,9 C 25,0 C 23,3 C 60 % 1015,4 hPa 0,0 l/m 2 min 0 min 451 W/m 3,2 km/h (1 Bft) 97,87 %
07.07.2019 13:50 21,0 C 25,0 C 23,9 C 62 % 1015,4 hPa 0,0 l/m 2 min 0 min 497 W/m 6,4 km/h (2 Bft) 97,83 %
07.07.2019 13:52 21,0 C 26,1 C 25,6 C 60 % 1015,3 hPa 0,0 l/m 2 min 0 min 483 W/m 9,7 km/h (2 Bft) 95,74 %
07.07.2019 13:54 21,1 C 27,2 C 27,8 C 58 % 1015,3 hPa 0,0 l/m 2 min 0 min 646 W/m 16,1 km/h (3 Bft) 97,87 %
07.07.2019 13:56 21,2 C 26,7 C 27,8 C 61 % 1015,3 hPa 0,0 l/m 2 min 0 min 922 W/m 16,1 km/h (3 Bft) 100,00 %
07.07.2019 13:58 21,2 C 25,6 C 27,2 C 58 % 1015,3 hPa 0,0 l/m 2 min 0 min 664 W/m 19,3 km/h (3 Bft) 97,87 %
07.07.2019 14:00 21,2 C 27,2 C 28,9 C 58 % 1015,3 hPa 0,0 l/m 2 min 0 min 1152 W/m 9,7 km/h (2 Bft) 97,87 %
07.07.2019 14:02 21,3 C 26,7 C 27,2 C 57 % 1015,2 hPa 0,0 l/m 2 min 0 min 1174 W/m 6,4 km/h (2 Bft) 100,00 %
07.07.2019 14:04 21,3 C 23,9 C 24,4 C 57 % 1015,3 hPa 0,0 l/m 0 min 0 min 290 W/m 19,3 km/h (3 Bft) 100,00 %
07.07.2019 14:06 21,3 C 23,9 C 23,9 C 57 % 1015,2 hPa 0,0 l/m 0 min 0 min 349 W/m 9,7 km/h (2 Bft) 100,00 %
07.07.2019 14:08 21,3 C 23,3 C 23,3 C 57 % 1015,2 hPa 0,0 l/m 0 min 0 min 354 W/m 9,7 km/h (2 Bft) 100,00 %
07.07.2019 14:10 21,2 C 22,8 C 22,2 C 58 % 1015,3 hPa 0,0 l/m 0 min 0 min 302 W/m 9,7 km/h (2 Bft) 100,00 %
07.07.2019 14:12 21,2 C 22,2 C 21,7 C 58 % 1015,2 hPa 0,0 l/m 0 min 0 min 278 W/m 6,4 km/h (2 Bft) 100,00 %
07.07.2019 14:14 21,1 C 21,7 C 21,7 C 59 % 1015,3 hPa 0,0 l/m 0 min 0 min 259 W/m 9,7 km/h (2 Bft) 100,00 %
07.07.2019 14:16 21,1 C 21,7 C 21,1 C 59 % 1015,2 hPa 0,0 l/m 0 min 0 min 235 W/m 3,2 km/h (1 Bft) 100,00 %
07.07.2019 14:18 21,0 C 21,7 C 21,1 C 59 % 1015,3 hPa 0,0 l/m 0 min 0 min 218 W/m 3,2 km/h (1 Bft) 100,00 %
07.07.2019 14:20 20,9 C 21,1 C 20,6 C 59 % 1015,3 hPa 0,0 l/m 0 min 0 min 225 W/m 12,9 km/h (3 Bft) 100,00 %
07.07.2019 14:22 20,8 C 20,6 C 20,6 C 58 % 1015,3 hPa 0,0 l/m 0 min 0 min 260 W/m 9,7 km/h (2 Bft) 100,00 %
07.07.2019 14:24 20,7 C 21,1 C 20,6 C 60 % 1015,3 hPa 0,0 l/m 0 min 0 min 308 W/m 6,4 km/h (2 Bft) 100,00 %
07.07.2019 14:26 20,6 C 21,1 C 20,6 C 59 % 1015,2 hPa 0,0 l/m 0 min 0 min 344 W/m 12,9 km/h (3 Bft) 100,00 %
07.07.2019 14:28 20,6 C 21,1 C 21,1 C 58 % 1015,3 hPa 0,0 l/m 0 min 0 min 391 W/m 16,1 km/h (3 Bft) 97,87 %
07.07.2019 14:30 20,5 C 22,2 C 22,2 C 59 % 1015,4 hPa 0,0 l/m 2 min 0 min 444 W/m 12,9 km/h (3 Bft) 100,00 %
07.07.2019 14:32 20,6 C 23,9 C 23,3 C 60 % 1015,3 hPa 0,0 l/m 2 min 0 min 515 W/m 9,7 km/h (2 Bft) 100,00 %
07.07.2019 14:34 20,7 C 26,7 C 27,2 C 59 % 1015,3 hPa 0,0 l/m 2 min 0 min 655 W/m 9,7 km/h (2 Bft) 100,00 %
07.07.2019 14:36 21,0 C 28,3 C 28,9 C 59 % 1015,4 hPa 0,0 l/m 2 min 0 min 1042 W/m 12,9 km/h (3 Bft) 100,00 %
07.07.2019 14:38 21,3 C 28,9 C 30,0 C 58 % 1015,3 hPa 0,0 l/m 2 min 0 min 1110 W/m 12,9 km/h (3 Bft) 100,00 %
07.07.2019 14:40 21,7 C 28,9 C 30,0 C 58 % 1015,4 hPa 0,0 l/m 2 min 0 min 1108 W/m 9,7 km/h (2 Bft) 100,00 %
07.07.2019 14:42 21,9 C 28,3 C 28,9 C 56 % 1015,3 hPa 0,0 l/m 2 min 0 min 1105 W/m 12,9 km/h (3 Bft) 100,00 %
07.07.2019 14:44 22,1 C 26,7 C 26,7 C 55 % 1015,3 hPa 0,0 l/m 2 min 0 min 451 W/m 9,7 km/h (2 Bft) 100,00 %
07.07.2019 14:46 22,1 C 25,0 C 25,0 C 55 % 1015,4 hPa 0,0 l/m 0 min 0 min 387 W/m 9,7 km/h (2 Bft) 95,74 %
07.07.2019 14:48 22,1 C 23,9 C 23,9 C 55 % 1015,3 hPa 0,0 l/m 0 min 0 min 404 W/m 9,7 km/h (2 Bft) 100,00 %
07.07.2019 14:50 22,1 C 23,9 C 23,3 C 56 % 1015,4 hPa 0,0 l/m 0 min 0 min 402 W/m 9,7 km/h (2 Bft) 100,00 %
07.07.2019 14:52 22,0 C 23,3 C 22,8 C 53 % 1015,4 hPa 0,0 l/m 0 min 0 min 381 W/m 12,9 km/h (3 Bft) 97,87 %
07.07.2019 14:54 22,0 C 23,3 C 22,8 C 55 % 1015,3 hPa 0,0 l/m 2 min 0 min 436 W/m 6,4 km/h (2 Bft) 100,00 %
07.07.2019 14:56 22,0 C 24,4 C 23,3 C 55 % 1015,3 hPa 0,0 l/m 2 min 0 min 464 W/m 6,4 km/h (2 Bft) 97,87 %
07.07.2019 14:58 21,9 C 23,9 C 22,8 C 54 % 1015,3 hPa 0,0 l/m 2 min 0 min 451 W/m 9,7 km/h (2 Bft) 97,87 %
07.07.2019 15:00 21,8 C 23,9 C 22,2 C 53 % 1015,3 hPa 0,0 l/m 2 min 0 min 448 W/m 9,7 km/h (2 Bft) 100,00 %
07.07.2019 15:02 21,9 C 26,1 C 23,3 C 56 % 1015,3 hPa 0,0 l/m 2 min 0 min 822 W/m 6,4 km/h (2 Bft) 100,00 %
07.07.2019 15:04 21,9 C 26,7 C 22,8 C 53 % 1015,2 hPa 0,0 l/m 2 min 0 min 828 W/m 9,7 km/h (2 Bft) 100,00 %
07.07.2019 15:06 22,1 C 26,1 C 23,3 C 55 % 1015,3 hPa 0,0 l/m 2 min 0 min 888 W/m 9,7 km/h (2 Bft) 100,00 %
07.07.2019 15:08 22,1 C 27,8 C 23,9 C 54 % 1015,3 hPa 0,0 l/m 2 min 0 min 542 W/m 6,4 km/h (2 Bft) 100,00 %
07.07.2019 15:10 22,3 C 26,1 C 23,3 C 54 % 1015,3 hPa 0,0 l/m 2 min 0 min 960 W/m 12,9 km/h (3 Bft) 100,00 %
07.07.2019 15:12 22,3 C 23,9 C 22,8 C 52 % 1015,3 hPa 0,0 l/m 0 min 0 min 315 W/m 16,1 km/h (3 Bft) 100,00 %
07.07.2019 15:14 22,3 C 22,8 C 22,2 C 53 % 1015,3 hPa 0,0 l/m 0 min 0 min 257 W/m 12,9 km/h (3 Bft) 100,00 %
07.07.2019 15:16 22,1 C 22,2 C 21,7 C 54 % 1015,4 hPa 0,0 l/m 0 min 0 min 232 W/m 16,1 km/h (3 Bft) 100,00 %
07.07.2019 15:18 21,9 C 21,1 C 21,1 C 54 % 1015,4 hPa 0,0 l/m 0 min 0 min 225 W/m 12,9 km/h (3 Bft) 100,00 %
07.07.2019 15:20 21,7 C 21,1 C 21,1 C 54 % 1015,5 hPa 0,0 l/m 0 min 0 min 229 W/m 9,7 km/h (2 Bft) 100,00 %
07.07.2019 15:22 21,5 C 20,6 C 20,6 C 55 % 1015,5 hPa 0,0 l/m 0 min 0 min 248 W/m 9,7 km/h (2 Bft) 100,00 %
07.07.2019 15:24 21,3 C 21,1 C 20,6 C 56 % 1015,4 hPa 0,0 l/m 0 min 0 min 280 W/m 9,7 km/h (2 Bft) 100,00 %
07.07.2019 15:26 21,2 C 22,8 C 21,1 C 56 % 1015,5 hPa 0,0 l/m 2 min 0 min 444 W/m 6,4 km/h (2 Bft) 100,00 %
07.07.2019 15:28 21,2 C 24,4 C 22,2 C 57 % 1015,4 hPa 0,0 l/m 2 min 0 min 1063 W/m 9,7 km/h (2 Bft) 97,87 %
07.07.2019 15:30 21,3 C 24,4 C 22,2 C 56 % 1015,4 hPa 0,0 l/m 2 min 0 min 1063 W/m 6,4 km/h (2 Bft) 100,00 %
07.07.2019 15:32 21,4 C 23,9 C 22,2 C 57 % 1015,5 hPa 0,0 l/m 0 min 0 min 284 W/m 6,4 km/h (2 Bft) 100,00 %
07.07.2019 15:34 21,4 C 22,8 C 21,7 C 56 % 1015,4 hPa 0,0 l/m 0 min 0 min 267 W/m 9,7 km/h (2 Bft) 97,87 %
07.07.2019 15:36 21,3 C 22,2 C 21,7 C 56 % 1015,4 hPa 0,0 l/m 0 min 0 min 250 W/m 6,4 km/h (2 Bft) 97,83 %
07.07.2019 15:38 21,3 C 22,2 C 21,1 C 57 % 1015,4 hPa 0,0 l/m 0 min 0 min 253 W/m 6,4 km/h (2 Bft) 97,87 %
07.07.2019 15:40 21,2 C 21,7 C 21,1 C 56 % 1015,5 hPa 0,0 l/m 0 min 0 min 265 W/m 6,4 km/h (2 Bft) 100,00 %
07.07.2019 15:42 21,1 C 21,1 C 21,1 C 57 % 1015,4 hPa 0,0 l/m 0 min 0 min 279 W/m 6,4 km/h (2 Bft) 95,74 %
07.07.2019 15:44 21,0 C 21,1 C 21,1 C 56 % 1015,4 hPa 0,0 l/m 0 min 0 min 291 W/m 9,7 km/h (2 Bft) 97,87 %
07.07.2019 15:46 21,0 C 21,1 C 21,1 C 56 % 1015,4 hPa 0,0 l/m 0 min 0 min 315 W/m 19,3 km/h (3 Bft) 97,83 %
07.07.2019 15:48 20,9 C 21,1 C 21,1 C 56 % 1015,4 hPa 0,0 l/m 0 min 0 min 361 W/m 19,3 km/h (3 Bft) 97,87 %
07.07.2019 15:50 20,8 C 21,1 C 21,1 C 56 % 1015,3 hPa 0,0 l/m 0 min 0 min 366 W/m 19,3 km/h (3 Bft) 93,62 %
07.07.2019 15:52 20,8 C 22,8 C 21,7 C 57 % 1015,4 hPa 0,0 l/m 0 min 0 min 367 W/m 12,9 km/h (3 Bft) 95,74 %
07.07.2019 15:54 20,9 C 23,9 C 22,8 C 57 % 1015,3 hPa 0,0 l/m 2 min 0 min 980 W/m 12,9 km/h (3 Bft) 95,74 %
07.07.2019 15:56 21,1 C 24,4 C 22,8 C 59 % 1015,4 hPa 0,0 l/m 2 min 0 min 969 W/m 6,4 km/h (2 Bft) 93,62 %
07.07.2019 15:58 21,3 C 24,4 C 22,8 C 58 % 1015,4 hPa 0,0 l/m 2 min 0 min 763 W/m 12,9 km/h (3 Bft) 93,62 %
07.07.2019 16:00 21,4 C 23,3 C 22,8 C 56 % 1015,3 hPa 0,0 l/m 2 min 0 min 614 W/m 16,1 km/h (3 Bft) 91,30 %
07.07.2019 16:02 21,5 C 23,3 C 22,2 C 56 % 1015,3 hPa 0,0 l/m 2 min 0 min 535 W/m 16,1 km/h (3 Bft) 95,74 %
07.07.2019 16:04 21,6 C 23,9 C 22,2 C 56 % 1015,4 hPa 0,0 l/m 2 min 0 min 905 W/m 25,7 km/h (4 Bft) 93,62 %
07.07.2019 16:06 21,7 C 24,4 C 22,2 C 55 % 1015,4 hPa 0,0 l/m 2 min 0 min 902 W/m 6,4 km/h (2 Bft) 95,74 %
07.07.2019 16:08 21,8 C 23,9 C 21,7 C 57 % 1015,4 hPa 0,0 l/m 2 min 0 min 733 W/m 6,4 km/h (2 Bft) 93,62 %
07.07.2019 16:10 21,8 C 22,2 C 21,1 C 54 % 1015,4 hPa 0,0 l/m 0 min 0 min 178 W/m 9,7 km/h (2 Bft) 93,48 %
07.07.2019 16:12 21,7 C 21,1 C 20,6 C 53 % 1015,3 hPa 0,0 l/m 0 min 0 min 208 W/m 12,9 km/h (3 Bft) 95,74 %
07.07.2019 16:14 21,7 C 21,1 C 20,6 C 56 % 1015,4 hPa 0,0 l/m 0 min 0 min 261 W/m 12,9 km/h (3 Bft) 93,62 %
07.07.2019 16:16 21,6 C 21,1 C 20,6 C 56 % 1015,4 hPa 0,0 l/m 0 min 0 min 261 W/m 6,4 km/h (2 Bft) 91,49 %
07.07.2019 16:18 21,4 C 21,1 C 20,6 C 56 % 1015,4 hPa 0,0 l/m 0 min 0 min 214 W/m 9,7 km/h (2 Bft) 93,62 %
07.07.2019 16:20 21,3 C 21,1 C 20,6 C 57 % 1015,5 hPa 0,0 l/m 0 min 0 min 201 W/m 6,4 km/h (2 Bft) 91,49 %
07.07.2019 16:22 21,2 C 20,6 C 20,6 C 56 % 1015,5 hPa 0,0 l/m 0 min 0 min 226 W/m 9,7 km/h (2 Bft) 91,30 %
07.07.2019 16:24 21,1 C 21,1 C 20,6 C 56 % 1015,5 hPa 0,0 l/m 0 min 0 min 331 W/m 16,1 km/h (3 Bft) 95,74 %
07.07.2019 16:26 21,1 C 21,7 C 22,2 C 57 % 1015,4 hPa 0,0 l/m 2 min 0 min 480 W/m 19,3 km/h (3 Bft) 95,74 %
07.07.2019 16:28 21,2 C 22,2 C 23,3 C 57 % 1015,4 hPa 0,0 l/m 2 min 0 min 534 W/m 12,9 km/h (3 Bft) 95,74 %
07.07.2019 16:30 21,3 C 22,8 C 24,4 C 57 % 1015,4 hPa 0,0 l/m 2 min 0 min 561 W/m 16,1 km/h (3 Bft) 95,74 %
07.07.2019 16:32 21,4 C 23,3 C 25,6 C 57 % 1015,4 hPa 0,0 l/m 2 min 0 min 973 W/m 12,9 km/h (3 Bft) 93,62 %
07.07.2019 16:34 21,6 C 23,3 C 25,0 C 55 % 1015,4 hPa 0,0 l/m 2 min 0 min 708 W/m 12,9 km/h (3 Bft) 95,65 %
07.07.2019 16:36 21,7 C 22,8 C 24,4 C 54 % 1015,4 hPa 0,0 l/m 2 min 0 min 796 W/m 6,4 km/h (2 Bft) 95,74 %
07.07.2019 16:38 21,8 C 22,8 C 23,9 C 55 % 1015,4 hPa 0,0 l/m 2 min 0 min 640 W/m 16,1 km/h (3 Bft) 95,74 %
07.07.2019 16:40 21,8 C 23,3 C 24,4 C 55 % 1015,3 hPa 0,0 l/m 2 min 0 min 759 W/m 9,7 km/h (2 Bft) 95,74 %
07.07.2019 16:42 22,1 C 23,9 C 24,4 C 55 % 1015,3 hPa 0,0 l/m 2 min 0 min 907 W/m 9,7 km/h (2 Bft) 95,74 %
07.07.2019 16:44 22,2 C 23,3 C 23,9 C 54 % 1015,4 hPa 0,0 l/m 2 min 0 min 879 W/m 12,9 km/h (3 Bft) 95,74 %
07.07.2019 16:46 22,3 C 22,8 C 22,8 C 54 % 1015,3 hPa 0,0 l/m 2 min 0 min 875 W/m 9,7 km/h (2 Bft) 97,83 %
07.07.2019 16:48 22,2 C 21,7 C 21,7 C 53 % 1015,3 hPa 0,0 l/m 0 min 0 min 217 W/m 19,3 km/h (3 Bft) 95,74 %
07.07.2019 16:50 22,1 C 21,1 C 21,1 C 53 % 1015,3 hPa 0,0 l/m 0 min 0 min 224 W/m 12,9 km/h (3 Bft) 95,74 %
07.07.2019 16:52 21,9 C 21,1 C 21,1 C 52 % 1015,3 hPa 0,0 l/m 0 min 0 min 262 W/m 9,7 km/h (2 Bft) 95,74 %
07.07.2019 16:54 21,9 C 22,2 C 21,7 C 54 % 1015,4 hPa 0,0 l/m 2 min 0 min 624 W/m 12,9 km/h (3 Bft) 97,87 %
07.07.2019 16:56 22,0 C 22,8 C 22,8 C 55 % 1015,4 hPa 0,0 l/m 2 min 0 min 624 W/m 9,7 km/h (2 Bft) 97,83 %
07.07.2019 16:58 22,1 C 23,3 C 23,3 C 55 % 1015,4 hPa 0,0 l/m 2 min 0 min 624 W/m 19,3 km/h (3 Bft) 95,74 %
07.07.2019 17:00 22,2 C 23,3 C 23,3 C 55 % 1015,3 hPa 0,0 l/m 2 min 0 min 826 W/m 16,1 km/h (3 Bft) 97,87 %
07.07.2019 17:02 22,3 C 23,3 C 23,3 C 54 % 1015,4 hPa 0,0 l/m 2 min 0 min 824 W/m 9,7 km/h (2 Bft) 95,74 %
07.07.2019 17:04 22,3 C 22,2 C 22,8 C 53 % 1015,4 hPa 0,0 l/m 2 min 0 min 458 W/m 22,5 km/h (4 Bft) 97,87 %
07.07.2019 17:06 22,3 C 22,8 C 22,2 C 54 % 1015,4 hPa 0,0 l/m 2 min 0 min 409 W/m 12,9 km/h (3 Bft) 97,87 %
07.07.2019 17:08 22,3 C 22,2 C 21,7 C 53 % 1015,4 hPa 0,0 l/m 2 min 0 min 369 W/m 12,9 km/h (3 Bft) 97,87 %
07.07.2019 17:10 22,3 C 22,2 C 21,7 C 54 % 1015,4 hPa 0,0 l/m 0 min 0 min 254 W/m 6,4 km/h (2 Bft) 97,83 %
07.07.2019 17:12 22,2 C 22,2 C 21,7 C 53 % 1015,3 hPa 0,0 l/m 0 min 0 min 266 W/m 6,4 km/h (2 Bft) 97,87 %
07.07.2019 17:14 22,2 C 22,2 C 21,7 C 54 % 1015,3 hPa 0,0 l/m 0 min 0 min 264 W/m 12,9 km/h (3 Bft) 100,00 %
07.07.2019 17:16 22,1 C 22,2 C 21,7 C 54 % 1015,3 hPa 0,0 l/m 0 min 0 min 264 W/m 9,7 km/h (2 Bft) 89,36 %
07.07.2019 17:18 22,1 C 21,7 C 21,7 C 55 % 1015,4 hPa 0,0 l/m 0 min 0 min 241 W/m 12,9 km/h (3 Bft) 100,00 %
07.07.2019 17:20 22,0 C 21,7 C 21,1 C 55 % 1015,4 hPa 0,0 l/m 0 min 0 min 220 W/m 12,9 km/h (3 Bft) 97,83 %
07.07.2019 17:22 21,9 C 21,1 C 21,1 C 54 % 1015,4 hPa 0,0 l/m 0 min 0 min 224 W/m 9,7 km/h (2 Bft) 100,00 %
07.07.2019 17:24 21,8 C 21,1 C 21,1 C 54 % 1015,4 hPa 0,0 l/m 0 min 0 min 242 W/m 12,9 km/h (3 Bft) 100,00 %
07.07.2019 17:26 21,7 C 21,7 C 22,2 C 56 % 1015,3 hPa 0,0 l/m 2 min 0 min 595 W/m 12,9 km/h (3 Bft) 100,00 %
07.07.2019 17:28 21,8 C 22,2 C 22,8 C 54 % 1015,4 hPa 0,0 l/m 2 min 0 min 713 W/m 12,9 km/h (3 Bft) 100,00 %
07.07.2019 17:30 21,9 C 22,8 C 22,8 C 55 % 1015,4 hPa 0,0 l/m 2 min 0 min 765 W/m 12,9 km/h (3 Bft) 100,00 %
07.07.2019 17:32 22,0 C 23,3 C 23,3 C 56 % 1015,4 hPa 0,0 l/m 2 min 0 min 719 W/m 9,7 km/h (2 Bft) 97,83 %
07.07.2019 17:34 22,1 C 22,8 C 22,8 C 55 % 1015,3 hPa 0,0 l/m 2 min 0 min 705 W/m 19,3 km/h (3 Bft) 100,00 %
07.07.2019 17:36 22,2 C 22,8 C 22,8 C 55 % 1015,3 hPa 0,0 l/m 2 min 0 min 705 W/m 9,7 km/h (2 Bft) 100,00 %
07.07.2019 17:38 22,2 C 22,2 C 22,2 C 54 % 1015,3 hPa 0,0 l/m 2 min 0 min 705 W/m 16,1 km/h (3 Bft) 100,00 %
07.07.2019 17:40 22,3 C 22,2 C 22,2 C 53 % 1015,3 hPa 0,0 l/m 2 min 0 min 629 W/m 12,9 km/h (3 Bft) 100,00 %
07.07.2019 17:42 22,3 C 22,2 C 22,2 C 53 % 1015,3 hPa 0,0 l/m 2 min 0 min 638 W/m 16,1 km/h (3 Bft) 100,00 %
07.07.2019 17:44 22,3 C 22,2 C 22,2 C 53 % 1015,3 hPa 0,0 l/m 2 min 0 min 663 W/m 12,9 km/h (3 Bft) 97,83 %
07.07.2019 17:46 22,3 C 22,2 C 22,2 C 53 % 1015,3 hPa 0,0 l/m 2 min 0 min 664 W/m 16,1 km/h (3 Bft) 100,00 %
07.07.2019 17:48 22,4 C 22,2 C 22,2 C 52 % 1015,3 hPa 0,0 l/m 2 min 0 min 627 W/m 9,7 km/h (2 Bft) 100,00 %
07.07.2019 17:50 22,4 C 22,2 C 22,2 C 54 % 1015,3 hPa 0,0 l/m 2 min 0 min 595 W/m 12,9 km/h (3 Bft) 100,00 %
07.07.2019 17:52 22,4 C 22,2 C 22,2 C 54 % 1015,3 hPa 0,0 l/m 2 min 0 min 582 W/m 9,7 km/h (2 Bft) 100,00 %
07.07.2019 17:54 22,4 C 22,2 C 22,2 C 53 % 1015,3 hPa 0,0 l/m 2 min 0 min 575 W/m 16,1 km/h (3 Bft) 100,00 %
07.07.2019 17:56 22,4 C 22,2 C 22,2 C 54 % 1015,3 hPa 0,0 l/m 2 min 0 min 566 W/m 9,7 km/h (2 Bft) 100,00 %
07.07.2019 17:58 22,4 C 22,2 C 22,8 C 53 % 1015,3 hPa 0,0 l/m 2 min 0 min 551 W/m 6,4 km/h (2 Bft) 100,00 %
07.07.2019 18:00 22,4 C 22,2 C 23,3 C 52 % 1015,3 hPa 0,0 l/m 2 min 0 min 536 W/m 9,7 km/h (2 Bft) 100,00 %
07.07.2019 18:02 22,4 C 21,7 C 22,8 C 52 % 1015,4 hPa 0,0 l/m 2 min 0 min 538 W/m 16,1 km/h (3 Bft) 100,00 %
07.07.2019 18:04 22,4 C 21,1 C 22,2 C 53 % 1015,3 hPa 0,0 l/m 2 min 0 min 389 W/m 9,7 km/h (2 Bft) 97,87 %
07.07.2019 18:08 22,3 C 21,7 C 21,7 C 54 % 1015,4 hPa 0,0 l/m 4 min 0 min 412 W/m 9,7 km/h (2 Bft) 98,92 %
07.07.2019 18:10 22,2 C 21,7 C 21,7 C 53 % 1015,4 hPa 0,0 l/m 0 min 0 min 183 W/m 9,7 km/h (2 Bft) 97,87 %
07.07.2019 18:12 22,2 C 21,7 C 21,7 C 53 % 1015,4 hPa 0,0 l/m 2 min 0 min 344 W/m 16,1 km/h (3 Bft) 97,87 %
07.07.2019 18:14 22,1 C 21,7 C 21,7 C 53 % 1015,5 hPa 0,0 l/m 2 min 0 min 456 W/m 19,3 km/h (3 Bft) 97,87 %
07.07.2019 18:16 22,0 C 21,7 C 21,1 C 53 % 1015,4 hPa 0,0 l/m 2 min 0 min 577 W/m 16,1 km/h (3 Bft) 97,87 %
07.07.2019 18:18 21,9 C 21,7 C 21,7 C 54 % 1015,4 hPa 0,0 l/m 2 min 0 min 557 W/m 6,4 km/h (2 Bft) 95,65 %
07.07.2019 18:20 21,9 C 21,7 C 21,1 C 54 % 1015,5 hPa 0,0 l/m 2 min 0 min 546 W/m 9,7 km/h (2 Bft) 97,87 %
07.07.2019 18:22 21,9 C 22,2 C 21,1 C 55 % 1015,5 hPa 0,0 l/m 2 min 0 min 505 W/m 3,2 km/h (1 Bft) 95,74 %
07.07.2019 18:24 21,9 C 21,7 C 21,1 C 53 % 1015,5 hPa 0,0 l/m 2 min 0 min 415 W/m 12,9 km/h (3 Bft) 95,74 %
07.07.2019 18:26 21,9 C 21,1 C 21,1 C 52 % 1015,4 hPa 0,0 l/m 2 min 0 min 417 W/m 16,1 km/h (3 Bft) 95,74 %
07.07.2019 18:28 21,9 C 21,1 C 20,6 C 52 % 1015,5 hPa 0,0 l/m 2 min 0 min 299 W/m 9,7 km/h (2 Bft) 97,87 %
07.07.2019 18:30 21,8 C 21,1 C 20,6 C 52 % 1015,4 hPa 0,0 l/m 2 min 0 min 390 W/m 9,7 km/h (2 Bft) 97,83 %
07.07.2019 18:32 21,8 C 20,6 C 20,6 C 53 % 1015,5 hPa 0,0 l/m 0 min 0 min 156 W/m 12,9 km/h (3 Bft) 97,87 %
07.07.2019 18:34 21,7 C 20,6 C 20,0 C 53 % 1015,5 hPa 0,0 l/m 0 min 0 min 146 W/m 9,7 km/h (2 Bft) 97,87 %
07.07.2019 18:36 21,6 C 20,0 C 20,0 C 51 % 1015,5 hPa 0,0 l/m 0 min 0 min 148 W/m 19,3 km/h (3 Bft) 95,74 %
07.07.2019 18:38 21,4 C 19,4 C 19,4 C 53 % 1015,5 hPa 0,0 l/m 0 min 0 min 144 W/m 12,9 km/h (3 Bft) 97,87 %
07.07.2019 18:40 21,2 C 19,4 C 19,4 C 52 % 1015,5 hPa 0,0 l/m 0 min 0 min 136 W/m 12,9 km/h (3 Bft) 97,87 %
07.07.2019 18:42 21,1 C 19,4 C 19,4 C 53 % 1015,5 hPa 0,0 l/m 0 min 0 min 133 W/m 9,7 km/h (2 Bft) 97,83 %
07.07.2019 18:44 21,0 C 19,4 C 19,4 C 53 % 1015,6 hPa 0,0 l/m 0 min 0 min 123 W/m 6,4 km/h (2 Bft) 97,87 %
07.07.2019 18:46 20,8 C 19,4 C 18,9 C 54 % 1015,5 hPa 0,0 l/m 0 min 0 min 118 W/m 12,9 km/h (3 Bft) 97,87 %
07.07.2019 18:48 20,7 C 18,9 C 18,9 C 55 % 1015,5 hPa 0,0 l/m 0 min 0 min 149 W/m 9,7 km/h (2 Bft) 95,74 %
07.07.2019 18:50 20,6 C 19,4 C 19,4 C 56 % 1015,6 hPa 0,0 l/m 2 min 0 min 251 W/m 6,4 km/h (2 Bft) 97,87 %
07.07.2019 18:52 20,5 C 19,4 C 19,4 C 55 % 1015,5 hPa 0,0 l/m 2 min 0 min 241 W/m 12,9 km/h (3 Bft) 95,74 %
07.07.2019 18:54 20,4 C 19,4 C 19,4 C 56 % 1015,5 hPa 0,0 l/m 0 min 0 min 173 W/m 9,7 km/h (2 Bft) 97,83 %
07.07.2019 18:56 20,3 C 19,4 C 19,4 C 55 % 1015,5 hPa 0,0 l/m 0 min 0 min 148 W/m 16,1 km/h (3 Bft) 97,87 %
07.07.2019 18:58 20,3 C 19,4 C 19,4 C 56 % 1015,4 hPa 0,0 l/m 0 min 0 min 134 W/m 6,4 km/h (2 Bft) 97,87 %
07.07.2019 19:00 20,2 C 19,4 C 19,4 C 56 % 1015,5 hPa 0,0 l/m 0 min 0 min 128 W/m 12,9 km/h (3 Bft) 97,87 %
07.07.2019 19:02 20,2 C 19,4 C 19,4 C 55 % 1015,5 hPa 0,0 l/m 0 min 0 min 128 W/m 9,7 km/h (2 Bft) 95,74 %
07.07.2019 19:04 20,1 C 18,9 C 18,9 C 55 % 1015,5 hPa 0,0 l/m 0 min 0 min 132 W/m 9,7 km/h (2 Bft) 95,65 %
07.07.2019 19:06 20,1 C 18,9 C 18,9 C 55 % 1015,5 hPa 0,0 l/m 0 min 0 min 136 W/m 9,7 km/h (2 Bft) 97,87 %
07.07.2019 19:08 20,0 C 18,9 C 18,9 C 56 % 1015,5 hPa 0,0 l/m 0 min 0 min 160 W/m 9,7 km/h (2 Bft) 95,74 %
07.07.2019 19:10 19,9 C 18,9 C 18,9 C 55 % 1015,6 hPa 0,0 l/m 0 min 0 min 160 W/m 9,7 km/h (2 Bft) 97,87 %
07.07.2019 19:12 19,9 C 18,9 C 18,9 C 55 % 1015,6 hPa 0,0 l/m 0 min 0 min 171 W/m 16,1 km/h (3 Bft) 97,87 %
07.07.2019 19:14 19,8 C 18,9 C 18,9 C 55 % 1015,6 hPa 0,0 l/m 2 min 0 min 195 W/m 16,1 km/h (3 Bft) 97,87 %
07.07.2019 19:16 19,8 C 19,4 C 18,9 C 56 % 1015,6 hPa 0,0 l/m 2 min 0 min 231 W/m 6,4 km/h (2 Bft) 97,83 %
07.07.2019 19:18 19,8 C 18,9 C 18,9 C 55 % 1015,6 hPa 0,0 l/m 0 min 0 min 153 W/m 12,9 km/h (3 Bft) 97,87 %
07.07.2019 19:20 19,7 C 18,9 C 18,9 C 55 % 1015,7 hPa 0,0 l/m 0 min 0 min 140 W/m 9,7 km/h (2 Bft) 95,74 %
07.07.2019 19:22 19,7 C 18,9 C 18,9 C 56 % 1015,6 hPa 0,0 l/m 0 min 0 min 137 W/m 9,7 km/h (2 Bft) 95,74 %
07.07.2019 19:24 19,7 C 18,9 C 18,3 C 55 % 1015,6 hPa 0,0 l/m 0 min 0 min 133 W/m 19,3 km/h (3 Bft) 95,74 %
07.07.2019 19:26 19,6 C 18,9 C 18,3 C 55 % 1015,6 hPa 0,0 l/m 0 min 0 min 127 W/m 12,9 km/h (3 Bft) 95,74 %
07.07.2019 19:28 19,6 C 18,9 C 18,3 C 55 % 1015,6 hPa 0,0 l/m 2 min 0 min 163 W/m 16,1 km/h (3 Bft) 97,83 %
07.07.2019 19:30 19,5 C 18,9 C 18,3 C 56 % 1015,7 hPa 0,0 l/m 2 min 0 min 194 W/m 9,7 km/h (2 Bft) 93,62 %
07.07.2019 19:32 19,4 C 18,3 C 18,3 C 56 % 1015,7 hPa 0,0 l/m 0 min 0 min 106 W/m 9,7 km/h (2 Bft) 95,74 %
07.07.2019 19:34 19,4 C 18,3 C 18,3 C 55 % 1015,8 hPa 0,0 l/m 0 min 0 min 137 W/m 16,1 km/h (3 Bft) 95,74 %
07.07.2019 19:36 19,3 C 18,3 C 18,3 C 56 % 1015,7 hPa 0,0 l/m 0 min 0 min 136 W/m 16,1 km/h (3 Bft) 97,87 %
07.07.2019 19:38 19,3 C 18,3 C 17,8 C 56 % 1015,7 hPa 0,0 l/m 0 min 0 min 90 W/m 9,7 km/h (2 Bft) 95,74 %
07.07.2019 19:40 19,2 C 18,3 C 17,8 C 57 % 1015,8 hPa 0,0 l/m 0 min 0 min 81 W/m 6,4 km/h (2 Bft) 95,65 %
07.07.2019 19:42 19,2 C 17,8 C 17,8 C 57 % 1015,8 hPa 0,0 l/m 0 min 0 min 84 W/m 16,1 km/h (3 Bft) 95,74 %
07.07.2019 19:44 19,1 C 17,8 C 17,8 C 57 % 1015,8 hPa 0,0 l/m 0 min 0 min 90 W/m 12,9 km/h (3 Bft) 95,74 %
07.07.2019 19:46 19,1 C 17,8 C 17,8 C 57 % 1015,8 hPa 0,0 l/m 0 min 0 min 115 W/m 6,4 km/h (2 Bft) 95,74 %
07.07.2019 19:48 19,0 C 17,8 C 17,8 C 57 % 1015,8 hPa 0,0 l/m 0 min 0 min 101 W/m 9,7 km/h (2 Bft) 95,74 %
07.07.2019 19:50 18,9 C 17,8 C 17,8 C 58 % 1015,8 hPa 0,0 l/m 0 min 0 min 91 W/m 6,4 km/h (2 Bft) 97,87 %
07.07.2019 19:52 18,9 C 17,8 C 17,8 C 58 % 1015,8 hPa 0,0 l/m 0 min 0 min 87 W/m 6,4 km/h (2 Bft) 95,65 %
07.07.2019 19:54 18,9 C 17,8 C 17,8 C 57 % 1015,8 hPa 0,0 l/m 0 min 0 min 79 W/m 6,4 km/h (2 Bft) 97,87 %
07.07.2019 19:56 18,8 C 17,8 C 17,8 C 57 % 1015,8 hPa 0,0 l/m 0 min 0 min 72 W/m 6,4 km/h (2 Bft) 97,87 %
07.07.2019 19:58 18,8 C 17,8 C 17,8 C 58 % 1015,9 hPa 0,0 l/m 0 min 0 min 69 W/m 9,7 km/h (2 Bft) 95,74 %
07.07.2019 20:00 18,7 C 17,8 C 17,8 C 58 % 1015,8 hPa 0,0 l/m 0 min 0 min 65 W/m 3,2 km/h (1 Bft) 97,87 %
07.07.2019 20:02 18,7 C 17,8 C 17,2 C 57 % 1015,9 hPa 0,0 l/m 0 min 0 min 68 W/m 12,9 km/h (3 Bft) 97,96 %
07.07.2019 20:04 18,7 C 17,8 C 17,8 C 57 % 1015,8 hPa 0,0 l/m 0 min 0 min 69 W/m 6,4 km/h (2 Bft) 97,87 %
07.07.2019 20:06 18,7 C 17,8 C 17,8 C 58 % 1015,8 hPa 0,0 l/m 0 min 0 min 71 W/m 6,4 km/h (2 Bft) 95,83 %
07.07.2019 20:08 18,6 C 17,8 C 17,8 C 58 % 1015,8 hPa 0,0 l/m 0 min 0 min 72 W/m 6,4 km/h (2 Bft) 97,83 %
07.07.2019 20:10 18,6 C 17,8 C 17,8 C 57 % 1015,8 hPa 0,0 l/m 0 min 0 min 76 W/m 9,7 km/h (2 Bft) 95,74 %
07.07.2019 20:12 18,5 C 17,8 C 17,8 C 57 % 1015,8 hPa 0,0 l/m 0 min 0 min 76 W/m 9,7 km/h (2 Bft) 97,87 %
07.07.2019 20:14 18,5 C 17,8 C 17,8 C 57 % 1015,8 hPa 0,0 l/m 0 min 0 min 77 W/m 9,7 km/h (2 Bft) 97,87 %
07.07.2019 20:16 18,4 C 17,8 C 17,8 C 58 % 1015,9 hPa 0,0 l/m 0 min 0 min 74 W/m 9,7 km/h (2 Bft) 97,87 %
07.07.2019 20:18 18,4 C 17,8 C 17,8 C 58 % 1015,9 hPa 0,0 l/m 0 min 0 min 70 W/m 6,4 km/h (2 Bft) 97,87 %
07.07.2019 20:20 18,4 C 17,8 C 17,8 C 58 % 1015,9 hPa 0,0 l/m 0 min 0 min 68 W/m 6,4 km/h (2 Bft) 97,87 %
07.07.2019 20:22 18,4 C 17,8 C 17,8 C 57 % 1015,9 hPa 0,0 l/m 0 min 0 min 74 W/m 6,4 km/h (2 Bft) 97,83 %
07.07.2019 20:24 18,4 C 17,8 C 17,8 C 58 % 1015,9 hPa 0,0 l/m 0 min 0 min 72 W/m 3,2 km/h (1 Bft) 97,62 %
07.07.2019 20:26 18,4 C 17,8 C 17,8 C 58 % 1015,9 hPa 0,0 l/m 0 min 0 min 72 W/m 9,7 km/h (2 Bft) 97,83 %
07.07.2019 20:28 18,4 C 17,8 C 17,2 C 58 % 1015,9 hPa 0,0 l/m 0 min 0 min 67 W/m 6,4 km/h (2 Bft) 97,87 %
07.07.2019 20:30 18,4 C 17,2 C 17,2 C 59 % 1015,9 hPa 0,0 l/m 0 min 0 min 64 W/m 9,7 km/h (2 Bft) 97,87 %
07.07.2019 20:32 18,3 C 17,2 C 17,2 C 58 % 1016,0 hPa 0,0 l/m 0 min 0 min 59 W/m 9,7 km/h (2 Bft) 96,23 %
07.07.2019 20:34 18,3 C 17,2 C 17,2 C 57 % 1016,0 hPa 0,0 l/m 0 min 0 min 53 W/m 6,4 km/h (2 Bft) 95,74 %
07.07.2019 20:36 18,3 C 17,2 C 17,2 C 57 % 1015,9 hPa 0,0 l/m 0 min 0 min 45 W/m 6,4 km/h (2 Bft) 100,00 %
07.07.2019 20:38 18,2 C 16,7 C 17,2 C 58 % 1016,1 hPa 0,0 l/m 0 min 0 min 40 W/m 12,9 km/h (3 Bft) 100,00 %
07.07.2019 20:40 18,2 C 16,7 C 16,7 C 57 % 1016,1 hPa 0,0 l/m 0 min 0 min 35 W/m 12,9 km/h (3 Bft) 100,00 %
07.07.2019 20:42 18,1 C 16,7 C 16,7 C 57 % 1016,1 hPa 0,0 l/m 0 min 0 min 33 W/m 9,7 km/h (2 Bft) 100,00 %
07.07.2019 20:44 18,1 C 16,7 C 16,7 C 58 % 1016,1 hPa 0,0 l/m 0 min 0 min 31 W/m 6,4 km/h (2 Bft) 100,00 %
07.07.2019 20:46 18,1 C 16,7 C 16,7 C 58 % 1016,2 hPa 0,0 l/m 0 min 0 min 30 W/m 6,4 km/h (2 Bft) 100,00 %
07.07.2019 20:48 18,0 C 16,1 C 16,1 C 58 % 1016,2 hPa 0,0 l/m 0 min 0 min 30 W/m 6,4 km/h (2 Bft) 100,00 %
07.07.2019 20:50 17,9 C 16,1 C 16,1 C 58 % 1016,2 hPa 0,0 l/m 0 min 0 min 32 W/m 6,4 km/h (2 Bft) 100,00 %
07.07.2019 20:52 17,9 C 16,1 C 16,1 C 59 % 1016,2 hPa 0,0 l/m 0 min 0 min 32 W/m 6,4 km/h (2 Bft) 97,87 %
07.07.2019 20:54 17,9 C 16,1 C 16,1 C 59 % 1016,1 hPa 0,0 l/m 0 min 0 min 32 W/m 6,4 km/h (2 Bft) 97,87 %
07.07.2019 20:56 17,8 C 16,1 C 16,1 C 59 % 1016,1 hPa 0,0 l/m 0 min 0 min 33 W/m 9,7 km/h (2 Bft) 97,83 %
07.07.2019 20:58 17,8 C 16,1 C 16,1 C 59 % 1016,2 hPa 0,0 l/m 0 min 0 min 32 W/m 9,7 km/h (2 Bft) 97,87 %
07.07.2019 21:00 17,7 C 16,1 C 16,1 C 60 % 1016,2 hPa 0,0 l/m 0 min 0 min 33 W/m 9,7 km/h (2 Bft) 97,87 %
07.07.2019 21:02 17,6 C 16,1 C 16,1 C 59 % 1016,2 hPa 0,0 l/m 0 min 0 min 32 W/m 19,3 km/h (3 Bft) 97,92 %
07.07.2019 21:04 17,5 C 16,1 C 16,1 C 59 % 1016,2 hPa 0,0 l/m 0 min 0 min 31 W/m 6,4 km/h (2 Bft) 97,87 %
07.07.2019 21:06 17,5 C 16,1 C 16,1 C 59 % 1016,1 hPa 0,0 l/m 0 min 0 min 30 W/m 3,2 km/h (1 Bft) 97,83 %
07.07.2019 21:08 17,4 C 16,1 C 16,1 C 59 % 1016,1 hPa 0,0 l/m 0 min 0 min 30 W/m 6,4 km/h (2 Bft) 97,87 %
07.07.2019 21:10 17,4 C 16,1 C 16,1 C 60 % 1016,2 hPa 0,0 l/m 0 min 0 min 30 W/m 3,2 km/h (1 Bft) 95,74 %
07.07.2019 21:12 17,4 C 16,1 C 16,1 C 60 % 1016,2 hPa 0,0 l/m 0 min 0 min 29 W/m 3,2 km/h (1 Bft) 97,87 %
07.07.2019 21:14 17,3 C 16,1 C 16,1 C 59 % 1016,2 hPa 0,0 l/m 0 min 0 min 27 W/m 6,4 km/h (2 Bft) 97,87 %
07.07.2019 21:16 17,3 C 16,1 C 16,1 C 60 % 1016,3 hPa 0,0 l/m 0 min 0 min 26 W/m 6,4 km/h (2 Bft) 100,00 %
07.07.2019 21:18 17,3 C 16,1 C 16,1 C 60 % 1016,2 hPa 0,0 l/m 0 min 0 min 25 W/m 6,4 km/h (2 Bft) 93,48 %
07.07.2019 21:20 17,3 C 16,1 C 16,1 C 60 % 1016,2 hPa 0,0 l/m 0 min 0 min 22 W/m 6,4 km/h (2 Bft) 97,87 %
07.07.2019 21:22 17,2 C 16,1 C 16,1 C 61 % 1016,2 hPa 0,0 l/m 0 min 0 min 21 W/m 6,4 km/h (2 Bft) 97,87 %
07.07.2019 21:24 17,2 C 16,1 C 16,1 C 62 % 1016,3 hPa 0,0 l/m 0 min 0 min 19 W/m 6,4 km/h (2 Bft) 97,87 %
07.07.2019 21:26 17,2 C 15,6 C 16,1 C 62 % 1016,3 hPa 0,0 l/m 0 min 0 min 18 W/m 6,4 km/h (2 Bft) 95,74 %
07.07.2019 21:28 17,1 C 15,6 C 15,6 C 62 % 1016,3 hPa 0,0 l/m 0 min 0 min 16 W/m 12,9 km/h (3 Bft) 95,74 %
07.07.2019 21:30 17,1 C 15,6 C 15,6 C 62 % 1016,4 hPa 0,0 l/m 0 min 0 min 15 W/m 6,4 km/h (2 Bft) 97,83 %
07.07.2019 21:32 17,1 C 15,6 C 15,6 C 63 % 1016,5 hPa 0,0 l/m 0 min 0 min 13 W/m 6,4 km/h (2 Bft) 95,74 %
07.07.2019 21:34 17,0 C 15,6 C 15,6 C 64 % 1016,5 hPa 0,0 l/m 0 min 0 min 12 W/m 12,9 km/h (3 Bft) 97,87 %
07.07.2019 21:36 17,0 C 15,6 C 15,6 C 65 % 1016,6 hPa 0,0 l/m 0 min 0 min 11 W/m 6,4 km/h (2 Bft) 97,87 %
07.07.2019 21:38 16,9 C 15,6 C 15,6 C 65 % 1016,7 hPa 0,0 l/m 0 min 0 min 10 W/m 6,4 km/h (2 Bft) 100,00 %
07.07.2019 21:40 16,9 C 15,6 C 15,6 C 65 % 1016,6 hPa 0,0 l/m 0 min 0 min 9 W/m 9,7 km/h (2 Bft) 97,87 %
07.07.2019 21:42 16,8 C 15,0 C 15,6 C 65 % 1016,7 hPa 0,0 l/m 0 min 0 min 7 W/m 12,9 km/h (3 Bft) 97,83 %
07.07.2019 21:44 16,8 C 15,0 C 15,0 C 65 % 1016,7 hPa 0,0 l/m 0 min 0 min 6 W/m 9,7 km/h (2 Bft) 100,00 %
07.07.2019 21:46 16,7 C 15,0 C 15,0 C 65 % 1016,7 hPa 0,0 l/m 0 min 0 min 5 W/m 6,4 km/h (2 Bft) 100,00 %
07.07.2019 21:48 16,7 C 15,0 C 15,0 C 65 % 1016,9 hPa 0,0 l/m 0 min 0 min 5 W/m 12,9 km/h (3 Bft) 100,00 %
07.07.2019 21:50 16,6 C 15,0 C 15,0 C 65 % 1016,8 hPa 0,0 l/m 0 min 0 min 5 W/m 12,9 km/h (3 Bft) 100,00 %
07.07.2019 21:52 16,5 C 15,0 C 15,0 C 65 % 1016,8 hPa 0,0 l/m 0 min 0 min 0 W/m 9,7 km/h (2 Bft) 97,87 %
07.07.2019 21:54 16,5 C 14,4 C 15,0 C 65 % 1016,8 hPa 0,0 l/m 0 min 0 min 0 W/m 3,2 km/h (1 Bft) 95,65 %
07.07.2019 21:56 16,4 C 14,4 C 15,0 C 65 % 1016,9 hPa 0,0 l/m 0 min 0 min 0 W/m 6,4 km/h (2 Bft) 100,00 %
07.07.2019 21:58 16,4 C 14,4 C 15,0 C 66 % 1016,9 hPa 0,0 l/m 0 min 0 min 0 W/m 6,4 km/h (2 Bft) 97,87 %
07.07.2019 22:00 16,3 C 14,4 C 14,4 C 66 % 1016,9 hPa 0,0 l/m 0 min 0 min 0 W/m 6,4 km/h (2 Bft) 97,87 %
07.07.2019 22:02 16,3 C 14,4 C 14,4 C 66 % 1016,9 hPa 0,0 l/m 0 min 0 min 0 W/m 6,4 km/h (2 Bft) 100,00 %
07.07.2019 22:04 16,2 C 14,4 C 14,4 C 66 % 1016,9 hPa 0,0 l/m 0 min 0 min 0 W/m 6,4 km/h (2 Bft) 100,00 %
07.07.2019 22:06 16,2 C 14,4 C 14,4 C 67 % 1017,0 hPa 0,0 l/m 0 min 0 min 0 W/m 3,2 km/h (1 Bft) 100,00 %
07.07.2019 22:08 16,2 C 14,4 C 14,4 C 67 % 1017,0 hPa 0,0 l/m 0 min 0 min 0 W/m 3,2 km/h (1 Bft) 100,00 %
07.07.2019 22:10 16,1 C 13,9 C 14,4 C 67 % 1016,9 hPa 0,0 l/m 0 min 0 min 0 W/m 6,4 km/h (2 Bft) 100,00 %
07.07.2019 22:12 16,1 C 13,9 C 14,4 C 67 % 1017,0 hPa 0,0 l/m 0 min 0 min 0 W/m 3,2 km/h (1 Bft) 100,00 %
07.07.2019 22:14 16,0 C 13,9 C 13,9 C 67 % 1017,0 hPa 0,0 l/m 0 min 0 min 0 W/m 3,2 km/h (1 Bft) 97,87 %
07.07.2019 22:16 15,9 C 13,9 C 13,9 C 68 % 1016,9 hPa 0,0 l/m 0 min 0 min 0 W/m 6,4 km/h (2 Bft) 100,00 %
07.07.2019 22:18 15,9 C 13,9 C 13,9 C 68 % 1017,0 hPa 0,0 l/m 0 min 0 min 0 W/m 3,2 km/h (1 Bft) 97,87 %
07.07.2019 22:20 15,8 C 13,9 C 13,9 C 68 % 1017,1 hPa 0,0 l/m 0 min 0 min 0 W/m 0,0 km/h (0 Bft) 97,87 %
07.07.2019 22:22 15,8 C 13,9 C 13,9 C 68 % 1017,1 hPa 0,0 l/m 0 min 0 min 0 W/m 3,2 km/h (1 Bft) 100,00 %
07.07.2019 22:24 15,8 C 13,9 C 13,9 C 68 % 1017,1 hPa 0,0 l/m 0 min 0 min 0 W/m 3,2 km/h (1 Bft) 100,00 %
07.07.2019 22:26 15,7 C 13,9 C 13,9 C 69 % 1017,1 hPa 0,0 l/m 0 min 0 min 0 W/m 9,7 km/h (2 Bft) 97,87 %
07.07.2019 22:28 15,7 C 13,9 C 13,9 C 69 % 1017,1 hPa 0,0 l/m 0 min 0 min 0 W/m 6,4 km/h (2 Bft) 95,65 %
07.07.2019 22:30 15,6 C 13,9 C 13,9 C 69 % 1017,2 hPa 0,0 l/m 0 min 0 min 0 W/m 3,2 km/h (1 Bft) 95,74 %
07.07.2019 22:32 15,5 C 13,9 C 13,9 C 69 % 1017,2 hPa 0,0 l/m 0 min 0 min 0 W/m 6,4 km/h (2 Bft) 95,74 %
07.07.2019 22:34 15,5 C 13,9 C 13,9 C 69 % 1017,2 hPa 0,0 l/m 0 min 0 min 0 W/m 6,4 km/h (2 Bft) 95,74 %
07.07.2019 22:36 15,4 C 13,3 C 13,9 C 69 % 1017,2 hPa 0,0 l/m 0 min 0 min 0 W/m 6,4 km/h (2 Bft) 95,74 %
07.07.2019 22:38 15,4 C 13,3 C 13,9 C 69 % 1017,2 hPa 0,0 l/m 0 min 0 min 0 W/m 3,2 km/h (1 Bft) 95,74 %
07.07.2019 22:40 15,3 C 13,3 C 13,3 C 69 % 1017,2 hPa 0,0 l/m 0 min 0 min 0 W/m 3,2 km/h (1 Bft) 95,65 %
07.07.2019 22:42 15,3 C 13,3 C 13,3 C 69 % 1017,2 hPa 0,0 l/m 0 min 0 min 0 W/m 3,2 km/h (1 Bft) 95,74 %
07.07.2019 22:44 15,3 C 13,3 C 13,3 C 69 % 1017,2 hPa 0,0 l/m 0 min 0 min 0 W/m 3,2 km/h (1 Bft) 93,62 %
07.07.2019 22:46 15,2 C 13,3 C 13,3 C 69 % 1017,2 hPa 0,0 l/m 0 min 0 min 0 W/m 3,2 km/h (1 Bft) 91,49 %
07.07.2019 22:48 15,2 C 12,8 C 13,3 C 70 % 1017,2 hPa 0,0 l/m 0 min 0 min 0 W/m 3,2 km/h (1 Bft) 95,74 %
07.07.2019 22:50 15,1 C 12,8 C 12,8 C 70 % 1017,2 hPa 0,0 l/m 0 min 0 min 0 W/m 3,2 km/h (1 Bft) 95,74 %
07.07.2019 22:52 15,1 C 12,8 C 12,8 C 70 % 1017,2 hPa 0,0 l/m 0 min 0 min 0 W/m 3,2 km/h (1 Bft) 93,48 %
07.07.2019 22:54 15,1 C 12,8 C 12,8 C 70 % 1017,2 hPa 0,0 l/m 0 min 0 min 0 W/m 3,2 km/h (1 Bft) 93,62 %
07.07.2019 22:56 14,9 C 12,8 C 12,8 C 71 % 1017,2 hPa 0,0 l/m 0 min 0 min 0 W/m 3,2 km/h (1 Bft) 95,74 %
07.07.2019 22:58 14,9 C 12,8 C 12,8 C 71 % 1017,2 hPa 0,0 l/m 0 min 0 min 0 W/m 0,0 km/h (0 Bft) 95,74 %
07.07.2019 23:00 14,9 C 12,8 C 12,8 C 71 % 1017,3 hPa 0,0 l/m 0 min 0 min 0 W/m 3,2 km/h (1 Bft) 95,74 %
07.07.2019 23:02 14,8 C 12,8 C 12,8 C 71 % 1017,3 hPa 0,0 l/m 0 min 0 min 0 W/m 6,4 km/h (2 Bft) 95,74 %
07.07.2019 23:04 14,8 C 12,8 C 12,8 C 71 % 1017,3 hPa 0,0 l/m 0 min 0 min 0 W/m 3,2 km/h (1 Bft) 95,65 %
07.07.2019 23:06 14,8 C 12,8 C 12,8 C 71 % 1017,3 hPa 0,0 l/m 0 min 0 min 0 W/m 3,2 km/h (1 Bft) 95,74 %
07.07.2019 23:08 14,7 C 12,2 C 12,2 C 71 % 1017,2 hPa 0,0 l/m 0 min 0 min 0 W/m 3,2 km/h (1 Bft) 97,87 %
07.07.2019 23:10 14,7 C 12,2 C 12,2 C 71 % 1017,3 hPa 0,0 l/m 0 min 0 min 0 W/m 3,2 km/h (1 Bft) 97,87 %
07.07.2019 23:12 14,6 C 12,2 C 12,2 C 71 % 1017,3 hPa 0,0 l/m 0 min 0 min 0 W/m 3,2 km/h (1 Bft) 97,87 %
07.07.2019 23:14 14,6 C 12,2 C 12,2 C 71 % 1017,4 hPa 0,0 l/m 0 min 0 min 0 W/m 3,2 km/h (1 Bft) 95,74 %
07.07.2019 23:16 14,5 C 12,2 C 12,2 C 71 % 1017,4 hPa 0,0 l/m 0 min 0 min 0 W/m 3,2 km/h (1 Bft) 97,83 %
07.07.2019 23:18 14,4 C 12,2 C 12,2 C 71 % 1017,3 hPa 0,0 l/m 0 min 0 min 0 W/m 0,0 km/h (0 Bft) 97,87 %
07.07.2019 23:20 14,4 C 12,2 C 12,2 C 71 % 1017,4 hPa 0,0 l/m 0 min 0 min 0 W/m 0,0 km/h (0 Bft) 97,87 %
07.07.2019 23:22 14,4 C 12,2 C 12,2 C 71 % 1017,6 hPa 0,0 l/m 0 min 0 min 0 W/m 0,0 km/h (0 Bft) 97,87 %
07.07.2019 23:24 14,3 C 12,2 C 12,2 C 72 % 1017,5 hPa 0,0 l/m 0 min 0 min 0 W/m 3,2 km/h (1 Bft) 97,87 %
07.07.2019 23:26 14,3 C 12,2 C 11,7 C 72 % 1017,6 hPa 0,0 l/m 0 min 0 min 0 W/m 3,2 km/h (1 Bft) 97,83 %
07.07.2019 23:28 14,2 C 11,7 C 11,7 C 72 % 1017,5 hPa 0,0 l/m 0 min 0 min 0 W/m 0,0 km/h (0 Bft) 95,74 %
07.07.2019 23:30 14,2 C 11,7 C 11,7 C 72 % 1017,4 hPa 0,0 l/m 0 min 0 min 0 W/m 0,0 km/h (0 Bft) 97,87 %
07.07.2019 23:32 14,2 C 11,7 C 11,7 C 72 % 1017,5 hPa 0,0 l/m 0 min 0 min 0 W/m 0,0 km/h (0 Bft) 97,87 %
07.07.2019 23:34 14,2 C 11,7 C 11,7 C 72 % 1017,5 hPa 0,0 l/m 0 min 0 min 0 W/m 3,2 km/h (1 Bft) 97,87 %
07.07.2019 23:36 14,2 C 11,7 C 11,7 C 73 % 1017,5 hPa 0,0 l/m 0 min 0 min 0 W/m 6,4 km/h (2 Bft) 97,87 %
07.07.2019 23:38 14,1 C 11,7 C 11,7 C 73 % 1017,6 hPa 0,0 l/m 0 min 0 min 0 W/m 3,2 km/h (1 Bft) 97,83 %
07.07.2019 23:40 14,0 C 11,7 C 11,7 C 73 % 1017,6 hPa 0,0 l/m 0 min 0 min 0 W/m 0,0 km/h (0 Bft) 97,87 %
07.07.2019 23:42 13,9 C 11,7 C 11,7 C 73 % 1017,7 hPa 0,0 l/m 0 min 0 min 0 W/m 0,0 km/h (0 Bft) 97,87 %
07.07.2019 23:44 13,9 C 11,7 C 11,7 C 73 % 1017,7 hPa 0,0 l/m 0 min 0 min 0 W/m 0,0 km/h (0 Bft) 97,87 %
07.07.2019 23:46 13,8 C 11,7 C 12,2 C 74 % 1017,6 hPa 0,0 l/m 0 min 0 min 0 W/m 0,0 km/h (0 Bft) 95,74 %
07.07.2019 23:48 13,8 C 11,7 C 12,2 C 74 % 1017,6 hPa 0,0 l/m 0 min 0 min 0 W/m 0,0 km/h (0 Bft) 100,00 %
07.07.2019 23:50 13,7 C 12,2 C 12,2 C 74 % 1017,6 hPa 0,0 l/m 0 min 0 min 0 W/m 0,0 km/h (0 Bft) 100,00 %
07.07.2019 23:52 13,7 C 11,7 C 11,7 C 74 % 1017,5 hPa 0,0 l/m 0 min 0 min 0 W/m 0,0 km/h (0 Bft) 100,00 %
07.07.2019 23:54 13,6 C 11,7 C 11,7 C 74 % 1017,7 hPa 0,0 l/m 0 min 0 min 0 W/m 0,0 km/h (0 Bft) 100,00 %
07.07.2019 23:56 13,6 C 11,7 C 11,7 C 74 % 1017,7 hPa 0,0 l/m 0 min 0 min 0 W/m 6,4 km/h (2 Bft) 97,87 %
07.07.2019 23:58 13,6 C 11,7 C 11,7 C 75 % 1017,7 hPa 0,0 l/m 0 min 0 min 0 W/m 3,2 km/h (1 Bft) 100,00 %
_ Min-Zeit 06:32 04:52 06:12 18:36 00:32 - - - - 00:00 03:10
Minimum _ 12,6 C 11,1 C 11,1 C 51 % 1012,8 hPa - - - - 0,0 km/h (0 Bft) 89,36 %
_ Max-Zeit 17:48 12:00 14:38 01:36 23:42 00:00 18:08 02:38 14:02 16:04 00:30
Maximum _ 22,4 C 29,4 C 30,0 C 95 % 1017,7 hPa 0,0 l/m 4 min 2 min 1174 W/m 25,7 km/h
W-NW (4 Bft)
100,00 %
Durchschnitt _ 17,3 C 17,7 C 17,7 C 73 % 1014,8 hPa #0,0 l/m #5:24 h #2 min. 312 W/m 6,7 km/h (2 Bft) 97,51 %
© 2019 W. Hausmann